<?xml version="1.0" encoding="UTF-8" standalone="no" ?>
<gpx xmlns="http://www.topografix.com/GPX/1/1" xmlns:xsi="http://www.w3.org/2001/XMLSchema-instance" xsi:schemaLocation="http://www.topografix.com/GPX/1/1 http://www.topografix.com/GPX/1/1/gpx.xsd" version="1.1" creator="VisuGPX - https://www.visugpx.com">
  <metadata>
    <name>TG19 37 KMS</name>
    <desc><![CDATA[                                      ]]></desc>
  </metadata>
  <trk>
    <name><![CDATA[TG19 37 KMS_1]]></name>
    <trkseg>
      <trkpt lat="46.72851" lon="-0.16524">
        <ele>123.3</ele>
        <time>2019-02-05T21:52:15.000Z</time>
      </trkpt>
      <trkpt lat="46.72892" lon="-0.16518">
        <ele>123.2</ele>
        <time>2019-02-05T21:52:15.826Z</time>
      </trkpt>
      <trkpt lat="46.72907" lon="-0.16524">
        <ele>123.2</ele>
        <time>2019-02-05T21:52:16.138Z</time>
      </trkpt>
      <trkpt lat="46.72933" lon="-0.16535">
        <ele>123.5</ele>
        <time>2019-02-05T21:52:16.680Z</time>
      </trkpt>
      <trkpt lat="46.72957" lon="-0.16548">
        <ele>123.7</ele>
        <time>2019-02-05T21:52:17.193Z</time>
      </trkpt>
      <trkpt lat="46.72983" lon="-0.16565">
        <ele>123</ele>
        <time>2019-02-05T21:52:17.764Z</time>
      </trkpt>
      <trkpt lat="46.72996" lon="-0.16577">
        <ele>122.9</ele>
        <time>2019-02-05T21:52:18.072Z</time>
      </trkpt>
      <trkpt lat="46.72997" lon="-0.1656">
        <ele>122.3</ele>
        <time>2019-02-05T21:52:18.306Z</time>
      </trkpt>
      <trkpt lat="46.72989" lon="-0.165">
        <ele>120.4</ele>
        <time>2019-02-05T21:52:19.146Z</time>
      </trkpt>
      <trkpt lat="46.7299" lon="-0.16445">
        <ele>118</ele>
        <time>2019-02-05T21:52:19.902Z</time>
      </trkpt>
      <trkpt lat="46.72986" lon="-0.16411">
        <ele>116.3</ele>
        <time>2019-02-05T21:52:20.376Z</time>
      </trkpt>
      <trkpt lat="46.72982" lon="-0.1639">
        <ele>115.7</ele>
        <time>2019-02-05T21:52:20.675Z</time>
      </trkpt>
      <trkpt lat="46.72967" lon="-0.16338">
        <ele>113.4</ele>
        <time>2019-02-05T21:52:21.450Z</time>
      </trkpt>
      <trkpt lat="46.72961" lon="-0.16292">
        <ele>112.2</ele>
        <time>2019-02-05T21:52:22.093Z</time>
      </trkpt>
      <trkpt lat="46.72952" lon="-0.16245">
        <ele>110.7</ele>
        <time>2019-02-05T21:52:22.763Z</time>
      </trkpt>
      <trkpt lat="46.72936" lon="-0.16176">
        <ele>109.6</ele>
        <time>2019-02-05T21:52:23.764Z</time>
      </trkpt>
      <trkpt lat="46.72927" lon="-0.16098">
        <ele>109.2</ele>
        <time>2019-02-05T21:52:24.850Z</time>
      </trkpt>
      <trkpt lat="46.72922" lon="-0.16025">
        <ele>107.8</ele>
        <time>2019-02-05T21:52:25.858Z</time>
      </trkpt>
      <trkpt lat="46.72922" lon="-0.15923">
        <ele>106</ele>
        <time>2019-02-05T21:52:27.259Z</time>
      </trkpt>
      <trkpt lat="46.7292" lon="-0.15895">
        <ele>105.9</ele>
        <time>2019-02-05T21:52:27.646Z</time>
      </trkpt>
      <trkpt lat="46.7291" lon="-0.15847">
        <ele>105.2</ele>
        <time>2019-02-05T21:52:28.335Z</time>
      </trkpt>
      <trkpt lat="46.72901" lon="-0.15836">
        <ele>105.6</ele>
        <time>2019-02-05T21:52:28.570Z</time>
      </trkpt>
      <trkpt lat="46.72894" lon="-0.15833">
        <ele>105.8</ele>
        <time>2019-02-05T21:52:28.716Z</time>
      </trkpt>
      <trkpt lat="46.72894" lon="-0.15834">
        <ele>105.8</ele>
        <time>2019-02-05T21:52:28.730Z</time>
      </trkpt>
      <trkpt lat="46.72893" lon="-0.15836">
        <ele>105.9</ele>
        <time>2019-02-05T21:52:28.764Z</time>
      </trkpt>
      <trkpt lat="46.72892" lon="-0.15837">
        <ele>105.9</ele>
        <time>2019-02-05T21:52:28.788Z</time>
      </trkpt>
      <trkpt lat="46.7289" lon="-0.15838">
        <ele>106</ele>
        <time>2019-02-05T21:52:28.830Z</time>
      </trkpt>
      <trkpt lat="46.72888" lon="-0.15839">
        <ele>106</ele>
        <time>2019-02-05T21:52:28.872Z</time>
      </trkpt>
      <trkpt lat="46.72884" lon="-0.15835">
        <ele>106.2</ele>
        <time>2019-02-05T21:52:28.969Z</time>
      </trkpt>
      <trkpt lat="46.72883" lon="-0.15828">
        <ele>106.1</ele>
        <time>2019-02-05T21:52:29.067Z</time>
      </trkpt>
      <trkpt lat="46.72886" lon="-0.15823">
        <ele>105.8</ele>
        <time>2019-02-05T21:52:29.158Z</time>
      </trkpt>
      <trkpt lat="46.72888" lon="-0.15822">
        <ele>105.6</ele>
        <time>2019-02-05T21:52:29.200Z</time>
      </trkpt>
      <trkpt lat="46.72889" lon="-0.15822">
        <ele>105.6</ele>
        <time>2019-02-05T21:52:29.220Z</time>
      </trkpt>
      <trkpt lat="46.72897" lon="-0.15775">
        <ele>102.5</ele>
        <time>2019-02-05T21:52:29.885Z</time>
      </trkpt>
      <trkpt lat="46.72912" lon="-0.15715">
        <ele>99.9</ele>
        <time>2019-02-05T21:52:30.762Z</time>
      </trkpt>
      <trkpt lat="46.72924" lon="-0.15678">
        <ele>97.6</ele>
        <time>2019-02-05T21:52:31.324Z</time>
      </trkpt>
      <trkpt lat="46.72941" lon="-0.15688">
        <ele>97.2</ele>
        <time>2019-02-05T21:52:31.691Z</time>
      </trkpt>
      <trkpt lat="46.72945" lon="-0.15689">
        <ele>97</ele>
        <time>2019-02-05T21:52:31.772Z</time>
      </trkpt>
      <trkpt lat="46.72948" lon="-0.15685">
        <ele>96.8</ele>
        <time>2019-02-05T21:52:31.853Z</time>
      </trkpt>
      <trkpt lat="46.72959" lon="-0.15659">
        <ele>95.7</ele>
        <time>2019-02-05T21:52:32.273Z</time>
      </trkpt>
      <trkpt lat="46.72964" lon="-0.15649">
        <ele>94.7</ele>
        <time>2019-02-05T21:52:32.443Z</time>
      </trkpt>
      <trkpt lat="46.73008" lon="-0.15593">
        <ele>94</ele>
        <time>2019-02-05T21:52:33.613Z</time>
      </trkpt>
      <trkpt lat="46.73019" lon="-0.15578">
        <ele>94.7</ele>
        <time>2019-02-05T21:52:33.915Z</time>
      </trkpt>
      <trkpt lat="46.73036" lon="-0.1554">
        <ele>95.2</ele>
        <time>2019-02-05T21:52:34.538Z</time>
      </trkpt>
      <trkpt lat="46.7305" lon="-0.15501">
        <ele>96</ele>
        <time>2019-02-05T21:52:35.143Z</time>
      </trkpt>
      <trkpt lat="46.73066" lon="-0.15464">
        <ele>96.8</ele>
        <time>2019-02-05T21:52:35.744Z</time>
      </trkpt>
      <trkpt lat="46.73083" lon="-0.15431">
        <ele>99</ele>
        <time>2019-02-05T21:52:36.311Z</time>
      </trkpt>
      <trkpt lat="46.73108" lon="-0.1538">
        <ele>102.9</ele>
        <time>2019-02-05T21:52:37.172Z</time>
      </trkpt>
      <trkpt lat="46.73112" lon="-0.15371">
        <ele>103.3</ele>
        <time>2019-02-05T21:52:37.319Z</time>
      </trkpt>
      <trkpt lat="46.73114" lon="-0.15371">
        <ele>103.4</ele>
        <time>2019-02-05T21:52:37.359Z</time>
      </trkpt>
      <trkpt lat="46.73121" lon="-0.15373">
        <ele>103.3</ele>
        <time>2019-02-05T21:52:37.502Z</time>
      </trkpt>
      <trkpt lat="46.73134" lon="-0.15368">
        <ele>104.1</ele>
        <time>2019-02-05T21:52:37.771Z</time>
      </trkpt>
      <trkpt lat="46.73137" lon="-0.15366">
        <ele>104.4</ele>
        <time>2019-02-05T21:52:37.837Z</time>
      </trkpt>
      <trkpt lat="46.73138" lon="-0.15362">
        <ele>104.9</ele>
        <time>2019-02-05T21:52:37.895Z</time>
      </trkpt>
      <trkpt lat="46.73144" lon="-0.15346">
        <ele>106.1</ele>
        <time>2019-02-05T21:52:38.146Z</time>
      </trkpt>
      <trkpt lat="46.7318" lon="-0.15241">
        <ele>112.5</ele>
        <time>2019-02-05T21:52:39.759Z</time>
      </trkpt>
      <trkpt lat="46.73206" lon="-0.15169">
        <ele>115.4</ele>
        <time>2019-02-05T21:52:40.877Z</time>
      </trkpt>
      <trkpt lat="46.73264" lon="-0.15028">
        <ele>120.5</ele>
        <time>2019-02-05T21:52:43.136Z</time>
      </trkpt>
      <trkpt lat="46.7329" lon="-0.14974">
        <ele>124.4</ele>
        <time>2019-02-05T21:52:44.042Z</time>
      </trkpt>
      <trkpt lat="46.73308" lon="-0.14941">
        <ele>126.3</ele>
        <time>2019-02-05T21:52:44.621Z</time>
      </trkpt>
      <trkpt lat="46.73318" lon="-0.14931">
        <ele>127.4</ele>
        <time>2019-02-05T21:52:44.864Z</time>
      </trkpt>
      <trkpt lat="46.73344" lon="-0.14917">
        <ele>129</ele>
        <time>2019-02-05T21:52:45.419Z</time>
      </trkpt>
      <trkpt lat="46.73361" lon="-0.14905">
        <ele>129.8</ele>
        <time>2019-02-05T21:52:45.797Z</time>
      </trkpt>
      <trkpt lat="46.73392" lon="-0.1487">
        <ele>131.3</ele>
        <time>2019-02-05T21:52:46.582Z</time>
      </trkpt>
      <trkpt lat="46.73433" lon="-0.14813">
        <ele>133.5</ele>
        <time>2019-02-05T21:52:47.717Z</time>
      </trkpt>
      <trkpt lat="46.73465" lon="-0.14758">
        <ele>137.4</ele>
        <time>2019-02-05T21:52:48.708Z</time>
      </trkpt>
      <trkpt lat="46.73495" lon="-0.14721">
        <ele>139.7</ele>
        <time>2019-02-05T21:52:49.495Z</time>
      </trkpt>
      <trkpt lat="46.73523" lon="-0.14681">
        <ele>141.4</ele>
        <time>2019-02-05T21:52:50.280Z</time>
      </trkpt>
      <trkpt lat="46.73566" lon="-0.14604">
        <ele>146.6</ele>
        <time>2019-02-05T21:52:51.644Z</time>
      </trkpt>
      <trkpt lat="46.73579" lon="-0.14579">
        <ele>147.6</ele>
        <time>2019-02-05T21:52:52.075Z</time>
      </trkpt>
      <trkpt lat="46.7359" lon="-0.14558">
        <ele>148.6</ele>
        <time>2019-02-05T21:52:52.438Z</time>
      </trkpt>
      <trkpt lat="46.73593" lon="-0.14557">
        <ele>148.6</ele>
        <time>2019-02-05T21:52:52.500Z</time>
      </trkpt>
      <trkpt lat="46.73616" lon="-0.14556">
        <ele>147.8</ele>
        <time>2019-02-05T21:52:52.961Z</time>
      </trkpt>
      <trkpt lat="46.73634" lon="-0.14556">
        <ele>147.2</ele>
        <time>2019-02-05T21:52:53.322Z</time>
      </trkpt>
      <trkpt lat="46.73655" lon="-0.14563">
        <ele>144.8</ele>
        <time>2019-02-05T21:52:53.754Z</time>
      </trkpt>
      <trkpt lat="46.73712" lon="-0.14617">
        <ele>135.3</ele>
        <time>2019-02-05T21:52:55.116Z</time>
      </trkpt>
      <trkpt lat="46.73733" lon="-0.14639">
        <ele>133.8</ele>
        <time>2019-02-05T21:52:55.634Z</time>
      </trkpt>
      <trkpt lat="46.73746" lon="-0.14662">
        <ele>135.4</ele>
        <time>2019-02-05T21:52:56.043Z</time>
      </trkpt>
      <trkpt lat="46.73767" lon="-0.14718">
        <ele>142.8</ele>
        <time>2019-02-05T21:52:56.920Z</time>
      </trkpt>
      <trkpt lat="46.738" lon="-0.14803">
        <ele>147.8</ele>
        <time>2019-02-05T21:52:58.262Z</time>
      </trkpt>
      <trkpt lat="46.73815" lon="-0.14832">
        <ele>148.4</ele>
        <time>2019-02-05T21:52:58.761Z</time>
      </trkpt>
      <trkpt lat="46.73818" lon="-0.14839">
        <ele>148.5</ele>
        <time>2019-02-05T21:52:58.874Z</time>
      </trkpt>
      <trkpt lat="46.73815" lon="-0.14827">
        <ele>148.7</ele>
        <time>2019-02-05T21:52:59.049Z</time>
      </trkpt>
      <trkpt lat="46.73828" lon="-0.14812">
        <ele>150.5</ele>
        <time>2019-02-05T21:52:59.381Z</time>
      </trkpt>
      <trkpt lat="46.73852" lon="-0.14781">
        <ele>153.7</ele>
        <time>2019-02-05T21:53:00.023Z</time>
      </trkpt>
      <trkpt lat="46.73874" lon="-0.14744">
        <ele>155.7</ele>
        <time>2019-02-05T21:53:00.696Z</time>
      </trkpt>
      <trkpt lat="46.73908" lon="-0.14682">
        <ele>156.5</ele>
        <time>2019-02-05T21:53:01.787Z</time>
      </trkpt>
      <trkpt lat="46.74021" lon="-0.1449">
        <ele>157.1</ele>
        <time>2019-02-05T21:53:05.263Z</time>
      </trkpt>
      <trkpt lat="46.74027" lon="-0.14486">
        <ele>157</ele>
        <time>2019-02-05T21:53:05.395Z</time>
      </trkpt>
      <trkpt lat="46.74028" lon="-0.14456">
        <ele>155.4</ele>
        <time>2019-02-05T21:53:05.807Z</time>
      </trkpt>
      <trkpt lat="46.74029" lon="-0.14401">
        <ele>153</ele>
        <time>2019-02-05T21:53:06.563Z</time>
      </trkpt>
      <trkpt lat="46.74025" lon="-0.1436">
        <ele>150.8</ele>
        <time>2019-02-05T21:53:07.132Z</time>
      </trkpt>
      <trkpt lat="46.74013" lon="-0.14311">
        <ele>152.1</ele>
        <time>2019-02-05T21:53:07.847Z</time>
      </trkpt>
      <trkpt lat="46.7402" lon="-0.14302">
        <ele>153</ele>
        <time>2019-02-05T21:53:08.034Z</time>
      </trkpt>
      <trkpt lat="46.74027" lon="-0.14291">
        <ele>154</ele>
        <time>2019-02-05T21:53:08.240Z</time>
      </trkpt>
      <trkpt lat="46.74035" lon="-0.14266">
        <ele>155.8</ele>
        <time>2019-02-05T21:53:08.619Z</time>
      </trkpt>
      <trkpt lat="46.74051" lon="-0.14186">
        <ele>159.3</ele>
        <time>2019-02-05T21:53:09.763Z</time>
      </trkpt>
      <trkpt lat="46.74054" lon="-0.14057">
        <ele>160</ele>
        <time>2019-02-05T21:53:11.536Z</time>
      </trkpt>
      <trkpt lat="46.74052" lon="-0.14027">
        <ele>160.9</ele>
        <time>2019-02-05T21:53:11.950Z</time>
      </trkpt>
      <trkpt lat="46.74026" lon="-0.13907">
        <ele>161</ele>
        <time>2019-02-05T21:53:13.678Z</time>
      </trkpt>
      <trkpt lat="46.74017" lon="-0.13867">
        <ele>161</ele>
        <time>2019-02-05T21:53:14.256Z</time>
      </trkpt>
      <trkpt lat="46.74042" lon="-0.13839">
        <ele>160.6</ele>
        <time>2019-02-05T21:53:14.888Z</time>
      </trkpt>
      <trkpt lat="46.74064" lon="-0.13818">
        <ele>160.3</ele>
        <time>2019-02-05T21:53:15.415Z</time>
      </trkpt>
      <trkpt lat="46.74095" lon="-0.13784">
        <ele>160.2</ele>
        <time>2019-02-05T21:53:16.192Z</time>
      </trkpt>
      <trkpt lat="46.74116" lon="-0.13757">
        <ele>160.2</ele>
        <time>2019-02-05T21:53:16.753Z</time>
      </trkpt>
      <trkpt lat="46.74168" lon="-0.13709">
        <ele>161</ele>
        <time>2019-02-05T21:53:17.986Z</time>
      </trkpt>
      <trkpt lat="46.74173" lon="-0.13712">
        <ele>161</ele>
        <time>2019-02-05T21:53:18.094Z</time>
      </trkpt>
      <trkpt lat="46.74183" lon="-0.13689">
        <ele>160.9</ele>
        <time>2019-02-05T21:53:18.468Z</time>
      </trkpt>
      <trkpt lat="46.74234" lon="-0.13618">
        <ele>160.1</ele>
        <time>2019-02-05T21:53:19.880Z</time>
      </trkpt>
      <trkpt lat="46.74312" lon="-0.13511">
        <ele>160</ele>
        <time>2019-02-05T21:53:22.025Z</time>
      </trkpt>
      <trkpt lat="46.74358" lon="-0.13449">
        <ele>159</ele>
        <time>2019-02-05T21:53:23.280Z</time>
      </trkpt>
      <trkpt lat="46.74388" lon="-0.13416">
        <ele>158.9</ele>
        <time>2019-02-05T21:53:24.033Z</time>
      </trkpt>
      <trkpt lat="46.74392" lon="-0.13411">
        <ele>158.7</ele>
        <time>2019-02-05T21:53:24.139Z</time>
      </trkpt>
      <trkpt lat="46.74396" lon="-0.13414">
        <ele>158.7</ele>
        <time>2019-02-05T21:53:24.229Z</time>
      </trkpt>
      <trkpt lat="46.74438" lon="-0.13394">
        <ele>158</ele>
        <time>2019-02-05T21:53:25.114Z</time>
      </trkpt>
      <trkpt lat="46.74456" lon="-0.13386">
        <ele>158</ele>
        <time>2019-02-05T21:53:25.491Z</time>
      </trkpt>
      <trkpt lat="46.74475" lon="-0.13377">
        <ele>157.5</ele>
        <time>2019-02-05T21:53:25.891Z</time>
      </trkpt>
      <trkpt lat="46.74505" lon="-0.13359">
        <ele>157</ele>
        <time>2019-02-05T21:53:26.541Z</time>
      </trkpt>
      <trkpt lat="46.74523" lon="-0.13346">
        <ele>156.5</ele>
        <time>2019-02-05T21:53:26.943Z</time>
      </trkpt>
      <trkpt lat="46.74539" lon="-0.13333">
        <ele>156</ele>
        <time>2019-02-05T21:53:27.310Z</time>
      </trkpt>
      <trkpt lat="46.74549" lon="-0.13323">
        <ele>156</ele>
        <time>2019-02-05T21:53:27.553Z</time>
      </trkpt>
      <trkpt lat="46.74559" lon="-0.13303">
        <ele>156</ele>
        <time>2019-02-05T21:53:27.893Z</time>
      </trkpt>
      <trkpt lat="46.74578" lon="-0.13231">
        <ele>155</ele>
        <time>2019-02-05T21:53:28.952Z</time>
      </trkpt>
      <trkpt lat="46.74597" lon="-0.13182">
        <ele>153.8</ele>
        <time>2019-02-05T21:53:29.725Z</time>
      </trkpt>
      <trkpt lat="46.74621" lon="-0.13131">
        <ele>152.8</ele>
        <time>2019-02-05T21:53:30.575Z</time>
      </trkpt>
      <trkpt lat="46.74634" lon="-0.13109">
        <ele>152.7</ele>
        <time>2019-02-05T21:53:30.974Z</time>
      </trkpt>
      <trkpt lat="46.74641" lon="-0.13098">
        <ele>152.5</ele>
        <time>2019-02-05T21:53:31.180Z</time>
      </trkpt>
      <trkpt lat="46.74673" lon="-0.13144">
        <ele>153.1</ele>
        <time>2019-02-05T21:53:32.080Z</time>
      </trkpt>
      <trkpt lat="46.74759" lon="-0.13257">
        <ele>154</ele>
        <time>2019-02-05T21:53:34.399Z</time>
      </trkpt>
      <trkpt lat="46.74767" lon="-0.13262">
        <ele>154</ele>
        <time>2019-02-05T21:53:34.573Z</time>
      </trkpt>
      <trkpt lat="46.74773" lon="-0.13264">
        <ele>154</ele>
        <time>2019-02-05T21:53:34.696Z</time>
      </trkpt>
      <trkpt lat="46.74854" lon="-0.13362">
        <ele>150.5</ele>
        <time>2019-02-05T21:53:36.804Z</time>
      </trkpt>
      <trkpt lat="46.74862" lon="-0.1337">
        <ele>149.6</ele>
        <time>2019-02-05T21:53:36.998Z</time>
      </trkpt>
      <trkpt lat="46.74871" lon="-0.13374">
        <ele>148.7</ele>
        <time>2019-02-05T21:53:37.187Z</time>
      </trkpt>
      <trkpt lat="46.74912" lon="-0.13377">
        <ele>144.4</ele>
        <time>2019-02-05T21:53:38.010Z</time>
      </trkpt>
      <trkpt lat="46.74939" lon="-0.13389">
        <ele>140.6</ele>
        <time>2019-02-05T21:53:38.576Z</time>
      </trkpt>
      <trkpt lat="46.74955" lon="-0.13389">
        <ele>140</ele>
        <time>2019-02-05T21:53:38.897Z</time>
      </trkpt>
      <trkpt lat="46.74977" lon="-0.13392">
        <ele>140</ele>
        <time>2019-02-05T21:53:39.340Z</time>
      </trkpt>
      <trkpt lat="46.74999" lon="-0.13406">
        <ele>141.2</ele>
        <time>2019-02-05T21:53:39.821Z</time>
      </trkpt>
      <trkpt lat="46.75005" lon="-0.13421">
        <ele>142.7</ele>
        <time>2019-02-05T21:53:40.059Z</time>
      </trkpt>
      <trkpt lat="46.75006" lon="-0.13422">
        <ele>142.9</ele>
        <time>2019-02-05T21:53:40.083Z</time>
      </trkpt>
      <trkpt lat="46.75014" lon="-0.13452">
        <ele>144</ele>
        <time>2019-02-05T21:53:40.525Z</time>
      </trkpt>
      <trkpt lat="46.75023" lon="-0.1347">
        <ele>145.3</ele>
        <time>2019-02-05T21:53:40.831Z</time>
      </trkpt>
      <trkpt lat="46.75029" lon="-0.13477">
        <ele>146.2</ele>
        <time>2019-02-05T21:53:40.985Z</time>
      </trkpt>
      <trkpt lat="46.75044" lon="-0.13479">
        <ele>148.3</ele>
        <time>2019-02-05T21:53:41.287Z</time>
      </trkpt>
      <trkpt lat="46.75058" lon="-0.13478">
        <ele>150.2</ele>
        <time>2019-02-05T21:53:41.568Z</time>
      </trkpt>
      <trkpt lat="46.75061" lon="-0.13484">
        <ele>150.4</ele>
        <time>2019-02-05T21:53:41.670Z</time>
      </trkpt>
      <trkpt lat="46.75064" lon="-0.13496">
        <ele>150.6</ele>
        <time>2019-02-05T21:53:41.845Z</time>
      </trkpt>
      <trkpt lat="46.75069" lon="-0.135">
        <ele>151</ele>
        <time>2019-02-05T21:53:41.959Z</time>
      </trkpt>
      <trkpt lat="46.75101" lon="-0.13503">
        <ele>152.6</ele>
        <time>2019-02-05T21:53:42.602Z</time>
      </trkpt>
      <trkpt lat="46.7511" lon="-0.13472">
        <ele>153</ele>
        <time>2019-02-05T21:53:43.064Z</time>
      </trkpt>
      <trkpt lat="46.75129" lon="-0.13409">
        <ele>152.9</ele>
        <time>2019-02-05T21:53:44.009Z</time>
      </trkpt>
      <trkpt lat="46.75145" lon="-0.13375">
        <ele>153</ele>
        <time>2019-02-05T21:53:44.575Z</time>
      </trkpt>
      <trkpt lat="46.75152" lon="-0.13365">
        <ele>153</ele>
        <time>2019-02-05T21:53:44.771Z</time>
      </trkpt>
      <trkpt lat="46.75158" lon="-0.13362">
        <ele>153</ele>
        <time>2019-02-05T21:53:44.898Z</time>
      </trkpt>
      <trkpt lat="46.75164" lon="-0.13361">
        <ele>153</ele>
        <time>2019-02-05T21:53:45.019Z</time>
      </trkpt>
      <trkpt lat="46.75189" lon="-0.1332">
        <ele>152.4</ele>
        <time>2019-02-05T21:53:45.773Z</time>
      </trkpt>
      <trkpt lat="46.7523" lon="-0.13255">
        <ele>151.2</ele>
        <time>2019-02-05T21:53:46.986Z</time>
      </trkpt>
      <trkpt lat="46.75235" lon="-0.1325">
        <ele>151</ele>
        <time>2019-02-05T21:53:47.107Z</time>
      </trkpt>
      <trkpt lat="46.75241" lon="-0.13251">
        <ele>151</ele>
        <time>2019-02-05T21:53:47.228Z</time>
      </trkpt>
      <trkpt lat="46.75256" lon="-0.13279">
        <ele>152</ele>
        <time>2019-02-05T21:53:47.716Z</time>
      </trkpt>
      <trkpt lat="46.7526" lon="-0.13282">
        <ele>152</ele>
        <time>2019-02-05T21:53:47.806Z</time>
      </trkpt>
      <trkpt lat="46.75265" lon="-0.13282">
        <ele>152</ele>
        <time>2019-02-05T21:53:47.906Z</time>
      </trkpt>
      <trkpt lat="46.7527" lon="-0.13277">
        <ele>152</ele>
        <time>2019-02-05T21:53:48.027Z</time>
      </trkpt>
      <trkpt lat="46.75377" lon="-0.13135">
        <ele>147.9</ele>
        <time>2019-02-05T21:53:50.925Z</time>
      </trkpt>
      <trkpt lat="46.75398" lon="-0.13102">
        <ele>146.3</ele>
        <time>2019-02-05T21:53:51.543Z</time>
      </trkpt>
      <trkpt lat="46.75433" lon="-0.13052">
        <ele>143.2</ele>
        <time>2019-02-05T21:53:52.524Z</time>
      </trkpt>
      <trkpt lat="46.75455" lon="-0.13025">
        <ele>140.8</ele>
        <time>2019-02-05T21:53:53.100Z</time>
      </trkpt>
      <trkpt lat="46.75484" lon="-0.13008">
        <ele>140</ele>
        <time>2019-02-05T21:53:53.726Z</time>
      </trkpt>
      <trkpt lat="46.75496" lon="-0.12997">
        <ele>140.3</ele>
        <time>2019-02-05T21:53:54.010Z</time>
      </trkpt>
      <trkpt lat="46.75501" lon="-0.12989">
        <ele>140</ele>
        <time>2019-02-05T21:53:54.159Z</time>
      </trkpt>
      <trkpt lat="46.75515" lon="-0.12958">
        <ele>141</ele>
        <time>2019-02-05T21:53:54.669Z</time>
      </trkpt>
      <trkpt lat="46.75533" lon="-0.12933">
        <ele>144.4</ele>
        <time>2019-02-05T21:53:55.167Z</time>
      </trkpt>
      <trkpt lat="46.75544" lon="-0.12921">
        <ele>146</ele>
        <time>2019-02-05T21:53:55.442Z</time>
      </trkpt>
      <trkpt lat="46.75549" lon="-0.12915">
        <ele>146.8</ele>
        <time>2019-02-05T21:53:55.572Z</time>
      </trkpt>
      <trkpt lat="46.7556" lon="-0.12927">
        <ele>148.3</ele>
        <time>2019-02-05T21:53:55.847Z</time>
      </trkpt>
      <trkpt lat="46.75585" lon="-0.12904">
        <ele>149.6</ele>
        <time>2019-02-05T21:53:56.439Z</time>
      </trkpt>
      <trkpt lat="46.75619" lon="-0.12878">
        <ele>150.2</ele>
        <time>2019-02-05T21:53:57.208Z</time>
      </trkpt>
      <trkpt lat="46.75638" lon="-0.12862">
        <ele>150</ele>
        <time>2019-02-05T21:53:57.648Z</time>
      </trkpt>
      <trkpt lat="46.75645" lon="-0.1285">
        <ele>150.2</ele>
        <time>2019-02-05T21:53:57.864Z</time>
      </trkpt>
      <trkpt lat="46.75671" lon="-0.12769">
        <ele>150.1</ele>
        <time>2019-02-05T21:53:59.092Z</time>
      </trkpt>
      <trkpt lat="46.75681" lon="-0.12744">
        <ele>150</ele>
        <time>2019-02-05T21:53:59.489Z</time>
      </trkpt>
      <trkpt lat="46.75694" lon="-0.12719">
        <ele>150</ele>
        <time>2019-02-05T21:53:59.920Z</time>
      </trkpt>
      <trkpt lat="46.75718" lon="-0.12678">
        <ele>150</ele>
        <time>2019-02-05T21:54:00.660Z</time>
      </trkpt>
      <trkpt lat="46.75732" lon="-0.1265">
        <ele>150</ele>
        <time>2019-02-05T21:54:01.136Z</time>
      </trkpt>
      <trkpt lat="46.75718" lon="-0.12638">
        <ele>150</ele>
        <time>2019-02-05T21:54:01.461Z</time>
      </trkpt>
      <trkpt lat="46.75709" lon="-0.12632">
        <ele>149.9</ele>
        <time>2019-02-05T21:54:01.659Z</time>
      </trkpt>
      <trkpt lat="46.75695" lon="-0.12625">
        <ele>150</ele>
        <time>2019-02-05T21:54:01.956Z</time>
      </trkpt>
      <trkpt lat="46.75678" lon="-0.12621">
        <ele>149.6</ele>
        <time>2019-02-05T21:54:02.301Z</time>
      </trkpt>
      <trkpt lat="46.75671" lon="-0.12621">
        <ele>149.5</ele>
        <time>2019-02-05T21:54:02.441Z</time>
      </trkpt>
      <trkpt lat="46.75646" lon="-0.12615">
        <ele>149</ele>
        <time>2019-02-05T21:54:02.949Z</time>
      </trkpt>
      <trkpt lat="46.75632" lon="-0.12608">
        <ele>148.9</ele>
        <time>2019-02-05T21:54:03.246Z</time>
      </trkpt>
      <trkpt lat="46.75591" lon="-0.12579">
        <ele>148</ele>
        <time>2019-02-05T21:54:04.159Z</time>
      </trkpt>
      <trkpt lat="46.75578" lon="-0.12572">
        <ele>147.9</ele>
        <time>2019-02-05T21:54:04.437Z</time>
      </trkpt>
      <trkpt lat="46.75589" lon="-0.12514">
        <ele>147</ele>
        <time>2019-02-05T21:54:05.263Z</time>
      </trkpt>
      <trkpt lat="46.75597" lon="-0.12484">
        <ele>146.4</ele>
        <time>2019-02-05T21:54:05.705Z</time>
      </trkpt>
      <trkpt lat="46.756" lon="-0.12448">
        <ele>145.7</ele>
        <time>2019-02-05T21:54:06.203Z</time>
      </trkpt>
      <trkpt lat="46.75605" lon="-0.12413">
        <ele>144.6</ele>
        <time>2019-02-05T21:54:06.694Z</time>
      </trkpt>
      <trkpt lat="46.75609" lon="-0.12374">
        <ele>142.9</ele>
        <time>2019-02-05T21:54:07.235Z</time>
      </trkpt>
      <trkpt lat="46.75611" lon="-0.12349">
        <ele>141.1</ele>
        <time>2019-02-05T21:54:07.581Z</time>
      </trkpt>
      <trkpt lat="46.75621" lon="-0.12315">
        <ele>137.7</ele>
        <time>2019-02-05T21:54:08.089Z</time>
      </trkpt>
      <trkpt lat="46.75649" lon="-0.12259">
        <ele>130</ele>
        <time>2019-02-05T21:54:09.041Z</time>
      </trkpt>
      <trkpt lat="46.75631" lon="-0.12247">
        <ele>128.5</ele>
        <time>2019-02-05T21:54:09.438Z</time>
      </trkpt>
      <trkpt lat="46.75594" lon="-0.1223">
        <ele>125.4</ele>
        <time>2019-02-05T21:54:10.215Z</time>
      </trkpt>
      <trkpt lat="46.75581" lon="-0.12223">
        <ele>124</ele>
        <time>2019-02-05T21:54:10.493Z</time>
      </trkpt>
      <trkpt lat="46.75577" lon="-0.12216">
        <ele>123</ele>
        <time>2019-02-05T21:54:10.618Z</time>
      </trkpt>
      <trkpt lat="46.75575" lon="-0.1221">
        <ele>122.2</ele>
        <time>2019-02-05T21:54:10.710Z</time>
      </trkpt>
      <trkpt lat="46.75571" lon="-0.12211">
        <ele>122.2</ele>
        <time>2019-02-05T21:54:10.791Z</time>
      </trkpt>
      <trkpt lat="46.7557" lon="-0.12211">
        <ele>122.1</ele>
        <time>2019-02-05T21:54:10.811Z</time>
      </trkpt>
      <trkpt lat="46.75575" lon="-0.1221">
        <ele>122.2</ele>
        <time>2019-02-05T21:54:10.912Z</time>
      </trkpt>
      <trkpt lat="46.75572" lon="-0.12176">
        <ele>119.6</ele>
        <time>2019-02-05T21:54:11.383Z</time>
      </trkpt>
      <trkpt lat="46.75559" lon="-0.12132">
        <ele>117.6</ele>
        <time>2019-02-05T21:54:12.041Z</time>
      </trkpt>
      <trkpt lat="46.75556" lon="-0.12104">
        <ele>116.1</ele>
        <time>2019-02-05T21:54:12.430Z</time>
      </trkpt>
      <trkpt lat="46.75557" lon="-0.12077">
        <ele>116.1</ele>
        <time>2019-02-05T21:54:12.801Z</time>
      </trkpt>
      <trkpt lat="46.75565" lon="-0.12022">
        <ele>115.4</ele>
        <time>2019-02-05T21:54:13.573Z</time>
      </trkpt>
      <trkpt lat="46.75545" lon="-0.12008">
        <ele>112.8</ele>
        <time>2019-02-05T21:54:14.017Z</time>
      </trkpt>
      <trkpt lat="46.75514" lon="-0.11973">
        <ele>113</ele>
        <time>2019-02-05T21:54:14.802Z</time>
      </trkpt>
      <trkpt lat="46.75503" lon="-0.11953">
        <ele>115.6</ele>
        <time>2019-02-05T21:54:15.154Z</time>
      </trkpt>
      <trkpt lat="46.75502" lon="-0.11942">
        <ele>116.7</ele>
        <time>2019-02-05T21:54:15.306Z</time>
      </trkpt>
      <trkpt lat="46.75511" lon="-0.11892">
        <ele>116.5</ele>
        <time>2019-02-05T21:54:16.016Z</time>
      </trkpt>
      <trkpt lat="46.75512" lon="-0.11869">
        <ele>116.7</ele>
        <time>2019-02-05T21:54:16.332Z</time>
      </trkpt>
      <trkpt lat="46.75502" lon="-0.11849">
        <ele>118.3</ele>
        <time>2019-02-05T21:54:16.672Z</time>
      </trkpt>
      <trkpt lat="46.75482" lon="-0.1183">
        <ele>120.6</ele>
        <time>2019-02-05T21:54:17.150Z</time>
      </trkpt>
      <trkpt lat="46.75465" lon="-0.11824">
        <ele>122.4</ele>
        <time>2019-02-05T21:54:17.500Z</time>
      </trkpt>
      <trkpt lat="46.75447" lon="-0.11823">
        <ele>124</ele>
        <time>2019-02-05T21:54:17.861Z</time>
      </trkpt>
      <trkpt lat="46.75435" lon="-0.11814">
        <ele>124.6</ele>
        <time>2019-02-05T21:54:18.131Z</time>
      </trkpt>
      <trkpt lat="46.75426" lon="-0.11809">
        <ele>125.2</ele>
        <time>2019-02-05T21:54:18.324Z</time>
      </trkpt>
      <trkpt lat="46.75404" lon="-0.11803">
        <ele>127.7</ele>
        <time>2019-02-05T21:54:18.772Z</time>
      </trkpt>
      <trkpt lat="46.75396" lon="-0.11799">
        <ele>128.7</ele>
        <time>2019-02-05T21:54:18.941Z</time>
      </trkpt>
      <trkpt lat="46.75393" lon="-0.11795">
        <ele>129</ele>
        <time>2019-02-05T21:54:19.022Z</time>
      </trkpt>
      <trkpt lat="46.75388" lon="-0.11771">
        <ele>129.3</ele>
        <time>2019-02-05T21:54:19.366Z</time>
      </trkpt>
      <trkpt lat="46.75379" lon="-0.11707">
        <ele>135.5</ele>
        <time>2019-02-05T21:54:20.263Z</time>
      </trkpt>
      <trkpt lat="46.75365" lon="-0.11629">
        <ele>142.2</ele>
        <time>2019-02-05T21:54:21.370Z</time>
      </trkpt>
      <trkpt lat="46.75357" lon="-0.11609">
        <ele>143.1</ele>
        <time>2019-02-05T21:54:21.688Z</time>
      </trkpt>
      <trkpt lat="46.75348" lon="-0.1163">
        <ele>142.8</ele>
        <time>2019-02-05T21:54:22.028Z</time>
      </trkpt>
      <trkpt lat="46.75344" lon="-0.11642">
        <ele>142.5</ele>
        <time>2019-02-05T21:54:22.211Z</time>
      </trkpt>
      <trkpt lat="46.75348" lon="-0.1163">
        <ele>142.8</ele>
        <time>2019-02-05T21:54:22.394Z</time>
      </trkpt>
      <trkpt lat="46.75357" lon="-0.11609">
        <ele>143.1</ele>
        <time>2019-02-05T21:54:22.734Z</time>
      </trkpt>
      <trkpt lat="46.75365" lon="-0.11591">
        <ele>143</ele>
        <time>2019-02-05T21:54:23.029Z</time>
      </trkpt>
      <trkpt lat="46.75379" lon="-0.11548">
        <ele>143.1</ele>
        <time>2019-02-05T21:54:23.683Z</time>
      </trkpt>
      <trkpt lat="46.75413" lon="-0.11439">
        <ele>140.1</ele>
        <time>2019-02-05T21:54:25.327Z</time>
      </trkpt>
      <trkpt lat="46.75423" lon="-0.11394">
        <ele>138.4</ele>
        <time>2019-02-05T21:54:25.977Z</time>
      </trkpt>
      <trkpt lat="46.75428" lon="-0.11377">
        <ele>138.2</ele>
        <time>2019-02-05T21:54:26.231Z</time>
      </trkpt>
      <trkpt lat="46.75431" lon="-0.11381">
        <ele>137.7</ele>
        <time>2019-02-05T21:54:26.312Z</time>
      </trkpt>
      <trkpt lat="46.75436" lon="-0.11386">
        <ele>137</ele>
        <time>2019-02-05T21:54:26.433Z</time>
      </trkpt>
      <trkpt lat="46.75455" lon="-0.11394">
        <ele>135.4</ele>
        <time>2019-02-05T21:54:26.829Z</time>
      </trkpt>
      <trkpt lat="46.7549" lon="-0.11404">
        <ele>132</ele>
        <time>2019-02-05T21:54:27.544Z</time>
      </trkpt>
      <trkpt lat="46.75504" lon="-0.11412">
        <ele>130</ele>
        <time>2019-02-05T21:54:27.845Z</time>
      </trkpt>
      <trkpt lat="46.75512" lon="-0.11418">
        <ele>129.2</ele>
        <time>2019-02-05T21:54:28.025Z</time>
      </trkpt>
      <trkpt lat="46.75542" lon="-0.114">
        <ele>129.2</ele>
        <time>2019-02-05T21:54:28.675Z</time>
      </trkpt>
      <trkpt lat="46.75568" lon="-0.11384">
        <ele>130.4</ele>
        <time>2019-02-05T21:54:29.240Z</time>
      </trkpt>
      <trkpt lat="46.75603" lon="-0.11382">
        <ele>130.5</ele>
        <time>2019-02-05T21:54:29.942Z</time>
      </trkpt>
      <trkpt lat="46.75664" lon="-0.11384">
        <ele>129.3</ele>
        <time>2019-02-05T21:54:31.165Z</time>
      </trkpt>
      <trkpt lat="46.75698" lon="-0.11377">
        <ele>127.6</ele>
        <time>2019-02-05T21:54:31.853Z</time>
      </trkpt>
      <trkpt lat="46.75708" lon="-0.1137">
        <ele>126.5</ele>
        <time>2019-02-05T21:54:32.075Z</time>
      </trkpt>
      <trkpt lat="46.75716" lon="-0.1136">
        <ele>125.7</ele>
        <time>2019-02-05T21:54:32.286Z</time>
      </trkpt>
      <trkpt lat="46.7573" lon="-0.11329">
        <ele>124</ele>
        <time>2019-02-05T21:54:32.796Z</time>
      </trkpt>
      <trkpt lat="46.75749" lon="-0.11292">
        <ele>124.1</ele>
        <time>2019-02-05T21:54:33.431Z</time>
      </trkpt>
      <trkpt lat="46.75762" lon="-0.11279">
        <ele>124</ele>
        <time>2019-02-05T21:54:33.747Z</time>
      </trkpt>
      <trkpt lat="46.75777" lon="-0.11263">
        <ele>124.7</ele>
        <time>2019-02-05T21:54:34.119Z</time>
      </trkpt>
      <trkpt lat="46.75786" lon="-0.1126">
        <ele>124.3</ele>
        <time>2019-02-05T21:54:34.304Z</time>
      </trkpt>
      <trkpt lat="46.75794" lon="-0.11259">
        <ele>123.9</ele>
        <time>2019-02-05T21:54:34.465Z</time>
      </trkpt>
      <trkpt lat="46.75808" lon="-0.11263">
        <ele>122.3</ele>
        <time>2019-02-05T21:54:34.751Z</time>
      </trkpt>
      <trkpt lat="46.75824" lon="-0.11266">
        <ele>120.3</ele>
        <time>2019-02-05T21:54:35.074Z</time>
      </trkpt>
      <trkpt lat="46.75833" lon="-0.11264">
        <ele>119.5</ele>
        <time>2019-02-05T21:54:35.256Z</time>
      </trkpt>
      <trkpt lat="46.75841" lon="-0.11257">
        <ele>118.9</ele>
        <time>2019-02-05T21:54:35.443Z</time>
      </trkpt>
      <trkpt lat="46.75847" lon="-0.11245">
        <ele>119.3</ele>
        <time>2019-02-05T21:54:35.647Z</time>
      </trkpt>
      <trkpt lat="46.75856" lon="-0.11221">
        <ele>121.1</ele>
        <time>2019-02-05T21:54:36.023Z</time>
      </trkpt>
      <trkpt lat="46.75871" lon="-0.11172">
        <ele>126</ele>
        <time>2019-02-05T21:54:36.760Z</time>
      </trkpt>
      <trkpt lat="46.7588" lon="-0.11152">
        <ele>127.2</ele>
        <time>2019-02-05T21:54:37.089Z</time>
      </trkpt>
      <trkpt lat="46.75897" lon="-0.11123">
        <ele>128.2</ele>
        <time>2019-02-05T21:54:37.613Z</time>
      </trkpt>
      <trkpt lat="46.76005" lon="-0.10961">
        <ele>130.6</ele>
        <time>2019-02-05T21:54:40.716Z</time>
      </trkpt>
      <trkpt lat="46.76096" lon="-0.10892">
        <ele>129.6</ele>
        <time>2019-02-05T21:54:42.771Z</time>
      </trkpt>
      <trkpt lat="46.76172" lon="-0.10862">
        <ele>129.5</ele>
        <time>2019-02-05T21:54:44.357Z</time>
      </trkpt>
      <trkpt lat="46.76196" lon="-0.10802">
        <ele>135.2</ele>
        <time>2019-02-05T21:54:45.307Z</time>
      </trkpt>
      <trkpt lat="46.76238" lon="-0.10737">
        <ele>135.6</ele>
        <time>2019-02-05T21:54:46.536Z</time>
      </trkpt>
      <trkpt lat="46.76231" lon="-0.10619">
        <ele>136.4</ele>
        <time>2019-02-05T21:54:48.163Z</time>
      </trkpt>
      <trkpt lat="46.76252" lon="-0.10555">
        <ele>132.7</ele>
        <time>2019-02-05T21:54:49.138Z</time>
      </trkpt>
      <trkpt lat="46.76233" lon="-0.10435">
        <ele>131.8</ele>
        <time>2019-02-05T21:54:50.831Z</time>
      </trkpt>
      <trkpt lat="46.76232" lon="-0.10435">
        <ele>131.9</ele>
        <time>2019-02-05T21:54:50.842Z</time>
      </trkpt>
      <trkpt lat="46.76223" lon="-0.10412">
        <ele>132.9</ele>
        <time>2019-02-05T21:54:51.206Z</time>
      </trkpt>
      <trkpt lat="46.76206" lon="-0.10389">
        <ele>134.8</ele>
        <time>2019-02-05T21:54:51.670Z</time>
      </trkpt>
      <trkpt lat="46.76186" lon="-0.10365">
        <ele>135.7</ele>
        <time>2019-02-05T21:54:52.189Z</time>
      </trkpt>
      <trkpt lat="46.76167" lon="-0.10347">
        <ele>137</ele>
        <time>2019-02-05T21:54:52.643Z</time>
      </trkpt>
      <trkpt lat="46.76074" lon="-0.10271">
        <ele>139.3</ele>
        <time>2019-02-05T21:54:54.779Z</time>
      </trkpt>
      <trkpt lat="46.76036" lon="-0.10241">
        <ele>139.5</ele>
        <time>2019-02-05T21:54:55.645Z</time>
      </trkpt>
      <trkpt lat="46.76014" lon="-0.10229">
        <ele>139.6</ele>
        <time>2019-02-05T21:54:56.116Z</time>
      </trkpt>
      <trkpt lat="46.76009" lon="-0.10226">
        <ele>139.7</ele>
        <time>2019-02-05T21:54:56.224Z</time>
      </trkpt>
      <trkpt lat="46.75995" lon="-0.10243">
        <ele>140.1</ele>
        <time>2019-02-05T21:54:56.589Z</time>
      </trkpt>
      <trkpt lat="46.7598" lon="-0.10266">
        <ele>140.9</ele>
        <time>2019-02-05T21:54:57.025Z</time>
      </trkpt>
      <trkpt lat="46.75945" lon="-0.10327">
        <ele>142</ele>
        <time>2019-02-05T21:54:58.117Z</time>
      </trkpt>
      <trkpt lat="46.75927" lon="-0.10353">
        <ele>142.4</ele>
        <time>2019-02-05T21:54:58.624Z</time>
      </trkpt>
      <trkpt lat="46.75905" lon="-0.10281">
        <ele>142.4</ele>
        <time>2019-02-05T21:54:59.706Z</time>
      </trkpt>
      <trkpt lat="46.759" lon="-0.10254">
        <ele>142.1</ele>
        <time>2019-02-05T21:55:00.090Z</time>
      </trkpt>
      <trkpt lat="46.75896" lon="-0.1021">
        <ele>141.7</ele>
        <time>2019-02-05T21:55:00.699Z</time>
      </trkpt>
      <trkpt lat="46.75893" lon="-0.10201">
        <ele>141.9</ele>
        <time>2019-02-05T21:55:00.836Z</time>
      </trkpt>
      <trkpt lat="46.75885" lon="-0.10187">
        <ele>141.8</ele>
        <time>2019-02-05T21:55:01.086Z</time>
      </trkpt>
      <trkpt lat="46.75863" lon="-0.10151">
        <ele>141.4</ele>
        <time>2019-02-05T21:55:01.748Z</time>
      </trkpt>
      <trkpt lat="46.7585" lon="-0.10121">
        <ele>141.1</ele>
        <time>2019-02-05T21:55:02.235Z</time>
      </trkpt>
      <trkpt lat="46.75825" lon="-0.10051">
        <ele>140.1</ele>
        <time>2019-02-05T21:55:03.319Z</time>
      </trkpt>
      <trkpt lat="46.75809" lon="-0.09998">
        <ele>138.9</ele>
        <time>2019-02-05T21:55:04.114Z</time>
      </trkpt>
      <trkpt lat="46.75789" lon="-0.09929">
        <ele>136.4</ele>
        <time>2019-02-05T21:55:05.143Z</time>
      </trkpt>
      <trkpt lat="46.75773" lon="-0.09869">
        <ele>133.4</ele>
        <time>2019-02-05T21:55:06.027Z</time>
      </trkpt>
      <trkpt lat="46.7577" lon="-0.09847">
        <ele>131.2</ele>
        <time>2019-02-05T21:55:06.335Z</time>
      </trkpt>
      <trkpt lat="46.75771" lon="-0.09825">
        <ele>129.2</ele>
        <time>2019-02-05T21:55:06.638Z</time>
      </trkpt>
      <trkpt lat="46.75773" lon="-0.09814">
        <ele>128.6</ele>
        <time>2019-02-05T21:55:06.794Z</time>
      </trkpt>
      <trkpt lat="46.75778" lon="-0.09803">
        <ele>127.9</ele>
        <time>2019-02-05T21:55:06.975Z</time>
      </trkpt>
      <trkpt lat="46.75805" lon="-0.09761">
        <ele>127</ele>
        <time>2019-02-05T21:55:07.766Z</time>
      </trkpt>
      <trkpt lat="46.75816" lon="-0.09749">
        <ele>126.7</ele>
        <time>2019-02-05T21:55:08.041Z</time>
      </trkpt>
      <trkpt lat="46.75838" lon="-0.09734">
        <ele>127</ele>
        <time>2019-02-05T21:55:08.528Z</time>
      </trkpt>
      <trkpt lat="46.75843" lon="-0.09726">
        <ele>127.4</ele>
        <time>2019-02-05T21:55:08.677Z</time>
      </trkpt>
      <trkpt lat="46.7585" lon="-0.09702">
        <ele>129.3</ele>
        <time>2019-02-05T21:55:09.035Z</time>
      </trkpt>
      <trkpt lat="46.75861" lon="-0.09653">
        <ele>132.5</ele>
        <time>2019-02-05T21:55:09.743Z</time>
      </trkpt>
      <trkpt lat="46.75878" lon="-0.09606">
        <ele>134</ele>
        <time>2019-02-05T21:55:10.473Z</time>
      </trkpt>
      <trkpt lat="46.75888" lon="-0.09577">
        <ele>134</ele>
        <time>2019-02-05T21:55:10.919Z</time>
      </trkpt>
      <trkpt lat="46.75891" lon="-0.09562">
        <ele>134</ele>
        <time>2019-02-05T21:55:11.134Z</time>
      </trkpt>
      <trkpt lat="46.75901" lon="-0.09439">
        <ele>129.4</ele>
        <time>2019-02-05T21:55:12.834Z</time>
      </trkpt>
      <trkpt lat="46.75896" lon="-0.09423">
        <ele>127.7</ele>
        <time>2019-02-05T21:55:13.075Z</time>
      </trkpt>
      <trkpt lat="46.75876" lon="-0.0939">
        <ele>123.6</ele>
        <time>2019-02-05T21:55:13.680Z</time>
      </trkpt>
      <trkpt lat="46.75849" lon="-0.09346">
        <ele>119.9</ele>
        <time>2019-02-05T21:55:14.491Z</time>
      </trkpt>
      <trkpt lat="46.75832" lon="-0.09324">
        <ele>119.1</ele>
        <time>2019-02-05T21:55:14.946Z</time>
      </trkpt>
      <trkpt lat="46.75815" lon="-0.09303">
        <ele>118.7</ele>
        <time>2019-02-05T21:55:15.392Z</time>
      </trkpt>
      <trkpt lat="46.75806" lon="-0.09286">
        <ele>117.8</ele>
        <time>2019-02-05T21:55:15.687Z</time>
      </trkpt>
      <trkpt lat="46.758" lon="-0.0927">
        <ele>117.2</ele>
        <time>2019-02-05T21:55:15.937Z</time>
      </trkpt>
      <trkpt lat="46.75802" lon="-0.09253">
        <ele>115.6</ele>
        <time>2019-02-05T21:55:16.174Z</time>
      </trkpt>
      <trkpt lat="46.75819" lon="-0.09202">
        <ele>111.2</ele>
        <time>2019-02-05T21:55:16.953Z</time>
      </trkpt>
      <trkpt lat="46.75825" lon="-0.09172">
        <ele>109.6</ele>
        <time>2019-02-05T21:55:17.382Z</time>
      </trkpt>
      <trkpt lat="46.75825" lon="-0.09162">
        <ele>109.5</ele>
        <time>2019-02-05T21:55:17.519Z</time>
      </trkpt>
      <trkpt lat="46.75824" lon="-0.0915">
        <ele>109.5</ele>
        <time>2019-02-05T21:55:17.685Z</time>
      </trkpt>
      <trkpt lat="46.75832" lon="-0.09134">
        <ele>109.2</ele>
        <time>2019-02-05T21:55:17.957Z</time>
      </trkpt>
      <trkpt lat="46.75816" lon="-0.09143">
        <ele>109.8</ele>
        <time>2019-02-05T21:55:18.301Z</time>
      </trkpt>
      <trkpt lat="46.75832" lon="-0.09134">
        <ele>109.2</ele>
        <time>2019-02-05T21:55:18.645Z</time>
      </trkpt>
      <trkpt lat="46.75848" lon="-0.09094">
        <ele>108.4</ele>
        <time>2019-02-05T21:55:19.281Z</time>
      </trkpt>
      <trkpt lat="46.7587" lon="-0.09026">
        <ele>111.7</ele>
        <time>2019-02-05T21:55:20.313Z</time>
      </trkpt>
      <trkpt lat="46.75884" lon="-0.08962">
        <ele>116.3</ele>
        <time>2019-02-05T21:55:21.235Z</time>
      </trkpt>
      <trkpt lat="46.75901" lon="-0.08829">
        <ele>125.2</ele>
        <time>2019-02-05T21:55:23.092Z</time>
      </trkpt>
      <trkpt lat="46.7591" lon="-0.08757">
        <ele>126.2</ele>
        <time>2019-02-05T21:55:24.097Z</time>
      </trkpt>
      <trkpt lat="46.75938" lon="-0.08668">
        <ele>129.2</ele>
        <time>2019-02-05T21:55:25.441Z</time>
      </trkpt>
      <trkpt lat="46.75893" lon="-0.08693">
        <ele>129.7</ele>
        <time>2019-02-05T21:55:26.406Z</time>
      </trkpt>
      <trkpt lat="46.75881" lon="-0.08695">
        <ele>130.2</ele>
        <time>2019-02-05T21:55:26.648Z</time>
      </trkpt>
      <trkpt lat="46.75868" lon="-0.08696">
        <ele>130.7</ele>
        <time>2019-02-05T21:55:26.909Z</time>
      </trkpt>
      <trkpt lat="46.75792" lon="-0.08675">
        <ele>131.8</ele>
        <time>2019-02-05T21:55:28.459Z</time>
      </trkpt>
      <trkpt lat="46.75721" lon="-0.08659">
        <ele>132</ele>
        <time>2019-02-05T21:55:29.899Z</time>
      </trkpt>
      <trkpt lat="46.75678" lon="-0.08652">
        <ele>130.6</ele>
        <time>2019-02-05T21:55:30.766Z</time>
      </trkpt>
      <trkpt lat="46.75665" lon="-0.08649">
        <ele>130</ele>
        <time>2019-02-05T21:55:31.030Z</time>
      </trkpt>
      <trkpt lat="46.75555" lon="-0.08616">
        <ele>133.8</ele>
        <time>2019-02-05T21:55:33.280Z</time>
      </trkpt>
      <trkpt lat="46.75526" lon="-0.08604">
        <ele>134.2</ele>
        <time>2019-02-05T21:55:33.884Z</time>
      </trkpt>
      <trkpt lat="46.75459" lon="-0.08532">
        <ele>135.4</ele>
        <time>2019-02-05T21:55:35.551Z</time>
      </trkpt>
      <trkpt lat="46.75434" lon="-0.08516">
        <ele>134.8</ele>
        <time>2019-02-05T21:55:36.098Z</time>
      </trkpt>
      <trkpt lat="46.75391" lon="-0.08492">
        <ele>134</ele>
        <time>2019-02-05T21:55:37.021Z</time>
      </trkpt>
      <trkpt lat="46.75339" lon="-0.08441">
        <ele>135.4</ele>
        <time>2019-02-05T21:55:38.276Z</time>
      </trkpt>
      <trkpt lat="46.753" lon="-0.08417">
        <ele>135.8</ele>
        <time>2019-02-05T21:55:39.124Z</time>
      </trkpt>
      <trkpt lat="46.7527" lon="-0.08411">
        <ele>134.9</ele>
        <time>2019-02-05T21:55:39.731Z</time>
      </trkpt>
      <trkpt lat="46.75245" lon="-0.08393">
        <ele>135.2</ele>
        <time>2019-02-05T21:55:40.290Z</time>
      </trkpt>
      <trkpt lat="46.75231" lon="-0.08378">
        <ele>135</ele>
        <time>2019-02-05T21:55:40.638Z</time>
      </trkpt>
      <trkpt lat="46.75216" lon="-0.08357">
        <ele>134.5</ele>
        <time>2019-02-05T21:55:41.055Z</time>
      </trkpt>
      <trkpt lat="46.75189" lon="-0.08288">
        <ele>134.3</ele>
        <time>2019-02-05T21:55:42.146Z</time>
      </trkpt>
      <trkpt lat="46.75173" lon="-0.0826">
        <ele>133.8</ele>
        <time>2019-02-05T21:55:42.647Z</time>
      </trkpt>
      <trkpt lat="46.75146" lon="-0.08225">
        <ele>133.6</ele>
        <time>2019-02-05T21:55:43.371Z</time>
      </trkpt>
      <trkpt lat="46.75107" lon="-0.0817">
        <ele>132.4</ele>
        <time>2019-02-05T21:55:44.458Z</time>
      </trkpt>
      <trkpt lat="46.751" lon="-0.08157">
        <ele>132.1</ele>
        <time>2019-02-05T21:55:44.685Z</time>
      </trkpt>
      <trkpt lat="46.75093" lon="-0.08145">
        <ele>131.8</ele>
        <time>2019-02-05T21:55:44.901Z</time>
      </trkpt>
      <trkpt lat="46.75083" lon="-0.08117">
        <ele>131.7</ele>
        <time>2019-02-05T21:55:45.335Z</time>
      </trkpt>
      <trkpt lat="46.75081" lon="-0.08096">
        <ele>132.7</ele>
        <time>2019-02-05T21:55:45.626Z</time>
      </trkpt>
      <trkpt lat="46.75084" lon="-0.0805">
        <ele>136.2</ele>
        <time>2019-02-05T21:55:46.260Z</time>
      </trkpt>
      <trkpt lat="46.75093" lon="-0.08012">
        <ele>137.3</ele>
        <time>2019-02-05T21:55:46.812Z</time>
      </trkpt>
      <trkpt lat="46.75062" lon="-0.08009">
        <ele>135.5</ele>
        <time>2019-02-05T21:55:47.435Z</time>
      </trkpt>
      <trkpt lat="46.75053" lon="-0.08014">
        <ele>134.2</ele>
        <time>2019-02-05T21:55:47.628Z</time>
      </trkpt>
      <trkpt lat="46.75047" lon="-0.08025">
        <ele>132.1</ele>
        <time>2019-02-05T21:55:47.821Z</time>
      </trkpt>
      <trkpt lat="46.75044" lon="-0.0804">
        <ele>130.5</ele>
        <time>2019-02-05T21:55:48.036Z</time>
      </trkpt>
      <trkpt lat="46.75049" lon="-0.08074">
        <ele>129</ele>
        <time>2019-02-05T21:55:48.513Z</time>
      </trkpt>
      <trkpt lat="46.75048" lon="-0.08153">
        <ele>127.8</ele>
        <time>2019-02-05T21:55:49.598Z</time>
      </trkpt>
      <trkpt lat="46.75051" lon="-0.08178">
        <ele>127</ele>
        <time>2019-02-05T21:55:49.946Z</time>
      </trkpt>
      <trkpt lat="46.75062" lon="-0.08223">
        <ele>125.8</ele>
        <time>2019-02-05T21:55:50.602Z</time>
      </trkpt>
      <trkpt lat="46.75067" lon="-0.08249">
        <ele>124.8</ele>
        <time>2019-02-05T21:55:50.973Z</time>
      </trkpt>
      <trkpt lat="46.7506" lon="-0.08235">
        <ele>125.7</ele>
        <time>2019-02-05T21:55:51.211Z</time>
      </trkpt>
      <trkpt lat="46.75049" lon="-0.08209">
        <ele>126.8</ele>
        <time>2019-02-05T21:55:51.631Z</time>
      </trkpt>
      <trkpt lat="46.75039" lon="-0.08179">
        <ele>128</ele>
        <time>2019-02-05T21:55:52.089Z</time>
      </trkpt>
      <trkpt lat="46.75033" lon="-0.0815">
        <ele>128.2</ele>
        <time>2019-02-05T21:55:52.505Z</time>
      </trkpt>
      <trkpt lat="46.75029" lon="-0.08124">
        <ele>128</ele>
        <time>2019-02-05T21:55:52.871Z</time>
      </trkpt>
      <trkpt lat="46.74998" lon="-0.08066">
        <ele>128.6</ele>
        <time>2019-02-05T21:55:53.881Z</time>
      </trkpt>
      <trkpt lat="46.74973" lon="-0.08034">
        <ele>130.2</ele>
        <time>2019-02-05T21:55:54.547Z</time>
      </trkpt>
      <trkpt lat="46.74954" lon="-0.08021">
        <ele>131.2</ele>
        <time>2019-02-05T21:55:54.968Z</time>
      </trkpt>
      <trkpt lat="46.74932" lon="-0.08015">
        <ele>132.4</ele>
        <time>2019-02-05T21:55:55.416Z</time>
      </trkpt>
      <trkpt lat="46.74916" lon="-0.08011">
        <ele>133.4</ele>
        <time>2019-02-05T21:55:55.741Z</time>
      </trkpt>
      <trkpt lat="46.74902" lon="-0.08003">
        <ele>134.2</ele>
        <time>2019-02-05T21:55:56.042Z</time>
      </trkpt>
      <trkpt lat="46.74832" lon="-0.07939">
        <ele>137</ele>
        <time>2019-02-05T21:55:57.697Z</time>
      </trkpt>
      <trkpt lat="46.74823" lon="-0.07947">
        <ele>137.4</ele>
        <time>2019-02-05T21:55:57.908Z</time>
      </trkpt>
      <trkpt lat="46.74824" lon="-0.07953">
        <ele>137.3</ele>
        <time>2019-02-05T21:55:57.993Z</time>
      </trkpt>
      <trkpt lat="46.74825" lon="-0.07965">
        <ele>137.3</ele>
        <time>2019-02-05T21:55:58.159Z</time>
      </trkpt>
      <trkpt lat="46.74821" lon="-0.07977">
        <ele>137.5</ele>
        <time>2019-02-05T21:55:58.342Z</time>
      </trkpt>
      <trkpt lat="46.74805" lon="-0.08014">
        <ele>138</ele>
        <time>2019-02-05T21:55:58.943Z</time>
      </trkpt>
      <trkpt lat="46.7479" lon="-0.08055">
        <ele>139</ele>
        <time>2019-02-05T21:55:59.581Z</time>
      </trkpt>
      <trkpt lat="46.74786" lon="-0.08082">
        <ele>139</ele>
        <time>2019-02-05T21:55:59.960Z</time>
      </trkpt>
      <trkpt lat="46.74785" lon="-0.08118">
        <ele>139.8</ele>
        <time>2019-02-05T21:56:00.455Z</time>
      </trkpt>
      <trkpt lat="46.74783" lon="-0.08131">
        <ele>139.9</ele>
        <time>2019-02-05T21:56:00.638Z</time>
      </trkpt>
      <trkpt lat="46.74777" lon="-0.08144">
        <ele>140</ele>
        <time>2019-02-05T21:56:00.853Z</time>
      </trkpt>
      <trkpt lat="46.74774" lon="-0.08151">
        <ele>140.1</ele>
        <time>2019-02-05T21:56:00.966Z</time>
      </trkpt>
      <trkpt lat="46.74767" lon="-0.08147">
        <ele>140.1</ele>
        <time>2019-02-05T21:56:01.117Z</time>
      </trkpt>
      <trkpt lat="46.74711" lon="-0.08039">
        <ele>140.4</ele>
        <time>2019-02-05T21:56:02.977Z</time>
      </trkpt>
      <trkpt lat="46.74674" lon="-0.07982">
        <ele>141</ele>
        <time>2019-02-05T21:56:04.055Z</time>
      </trkpt>
      <trkpt lat="46.74667" lon="-0.07956">
        <ele>141</ele>
        <time>2019-02-05T21:56:04.439Z</time>
      </trkpt>
      <trkpt lat="46.74664" lon="-0.0793">
        <ele>141</ele>
        <time>2019-02-05T21:56:04.801Z</time>
      </trkpt>
      <trkpt lat="46.74663" lon="-0.07922">
        <ele>141</ele>
        <time>2019-02-05T21:56:04.913Z</time>
      </trkpt>
      <trkpt lat="46.74647" lon="-0.07946">
        <ele>141</ele>
        <time>2019-02-05T21:56:05.373Z</time>
      </trkpt>
      <trkpt lat="46.74633" lon="-0.07964">
        <ele>141.2</ele>
        <time>2019-02-05T21:56:05.747Z</time>
      </trkpt>
      <trkpt lat="46.74617" lon="-0.07976">
        <ele>141.7</ele>
        <time>2019-02-05T21:56:06.107Z</time>
      </trkpt>
      <trkpt lat="46.74597" lon="-0.07991">
        <ele>141.7</ele>
        <time>2019-02-05T21:56:06.558Z</time>
      </trkpt>
      <trkpt lat="46.74586" lon="-0.07995">
        <ele>141.9</ele>
        <time>2019-02-05T21:56:06.785Z</time>
      </trkpt>
      <trkpt lat="46.74564" lon="-0.08003">
        <ele>142</ele>
        <time>2019-02-05T21:56:07.239Z</time>
      </trkpt>
      <trkpt lat="46.74553" lon="-0.08011">
        <ele>142.1</ele>
        <time>2019-02-05T21:56:07.485Z</time>
      </trkpt>
      <trkpt lat="46.74513" lon="-0.08057">
        <ele>142.5</ele>
        <time>2019-02-05T21:56:08.506Z</time>
      </trkpt>
      <trkpt lat="46.74493" lon="-0.08081">
        <ele>142.1</ele>
        <time>2019-02-05T21:56:09.025Z</time>
      </trkpt>
      <trkpt lat="46.74478" lon="-0.08084">
        <ele>142</ele>
        <time>2019-02-05T21:56:09.328Z</time>
      </trkpt>
      <trkpt lat="46.74459" lon="-0.08081">
        <ele>142</ele>
        <time>2019-02-05T21:56:09.711Z</time>
      </trkpt>
      <trkpt lat="46.74455" lon="-0.08083">
        <ele>142</ele>
        <time>2019-02-05T21:56:09.796Z</time>
      </trkpt>
      <trkpt lat="46.74451" lon="-0.08091">
        <ele>142</ele>
        <time>2019-02-05T21:56:09.932Z</time>
      </trkpt>
      <trkpt lat="46.74441" lon="-0.08115">
        <ele>141.9</ele>
        <time>2019-02-05T21:56:10.318Z</time>
      </trkpt>
      <trkpt lat="46.74424" lon="-0.08145">
        <ele>142</ele>
        <time>2019-02-05T21:56:10.853Z</time>
      </trkpt>
      <trkpt lat="46.74405" lon="-0.08173">
        <ele>142</ele>
        <time>2019-02-05T21:56:11.394Z</time>
      </trkpt>
      <trkpt lat="46.74398" lon="-0.0819">
        <ele>142</ele>
        <time>2019-02-05T21:56:11.666Z</time>
      </trkpt>
      <trkpt lat="46.74392" lon="-0.08177">
        <ele>142</ele>
        <time>2019-02-05T21:56:11.881Z</time>
      </trkpt>
      <trkpt lat="46.7439" lon="-0.08165">
        <ele>141.9</ele>
        <time>2019-02-05T21:56:12.051Z</time>
      </trkpt>
      <trkpt lat="46.74393" lon="-0.08146">
        <ele>141.4</ele>
        <time>2019-02-05T21:56:12.319Z</time>
      </trkpt>
      <trkpt lat="46.74396" lon="-0.08115">
        <ele>141</ele>
        <time>2019-02-05T21:56:12.749Z</time>
      </trkpt>
      <trkpt lat="46.74396" lon="-0.08099">
        <ele>140.7</ele>
        <time>2019-02-05T21:56:12.969Z</time>
      </trkpt>
      <trkpt lat="46.74391" lon="-0.08038">
        <ele>138.6</ele>
        <time>2019-02-05T21:56:13.813Z</time>
      </trkpt>
      <trkpt lat="46.74393" lon="-0.08011">
        <ele>137.8</ele>
        <time>2019-02-05T21:56:14.186Z</time>
      </trkpt>
      <trkpt lat="46.74402" lon="-0.0798">
        <ele>137.7</ele>
        <time>2019-02-05T21:56:14.648Z</time>
      </trkpt>
      <trkpt lat="46.74407" lon="-0.07965">
        <ele>138</ele>
        <time>2019-02-05T21:56:14.877Z</time>
      </trkpt>
      <trkpt lat="46.7441" lon="-0.07944">
        <ele>137.8</ele>
        <time>2019-02-05T21:56:15.172Z</time>
      </trkpt>
      <trkpt lat="46.74413" lon="-0.07906">
        <ele>138.7</ele>
        <time>2019-02-05T21:56:15.697Z</time>
      </trkpt>
      <trkpt lat="46.74418" lon="-0.07815">
        <ele>141</ele>
        <time>2019-02-05T21:56:16.951Z</time>
      </trkpt>
      <trkpt lat="46.74419" lon="-0.07764">
        <ele>142</ele>
        <time>2019-02-05T21:56:17.652Z</time>
      </trkpt>
      <trkpt lat="46.74416" lon="-0.07743">
        <ele>142</ele>
        <time>2019-02-05T21:56:17.947Z</time>
      </trkpt>
      <trkpt lat="46.74404" lon="-0.07709">
        <ele>142</ele>
        <time>2019-02-05T21:56:18.472Z</time>
      </trkpt>
      <trkpt lat="46.74394" lon="-0.07669">
        <ele>142.2</ele>
        <time>2019-02-05T21:56:19.057Z</time>
      </trkpt>
      <trkpt lat="46.74383" lon="-0.07636">
        <ele>142.8</ele>
        <time>2019-02-05T21:56:19.561Z</time>
      </trkpt>
      <trkpt lat="46.74395" lon="-0.07622">
        <ele>142.8</ele>
        <time>2019-02-05T21:56:19.869Z</time>
      </trkpt>
      <trkpt lat="46.74432" lon="-0.0759">
        <ele>142.3</ele>
        <time>2019-02-05T21:56:20.731Z</time>
      </trkpt>
      <trkpt lat="46.74444" lon="-0.07575">
        <ele>142.3</ele>
        <time>2019-02-05T21:56:21.048Z</time>
      </trkpt>
      <trkpt lat="46.74453" lon="-0.0756">
        <ele>142.6</ele>
        <time>2019-02-05T21:56:21.322Z</time>
      </trkpt>
      <trkpt lat="46.74468" lon="-0.07528">
        <ele>143</ele>
        <time>2019-02-05T21:56:21.854Z</time>
      </trkpt>
      <trkpt lat="46.74488" lon="-0.07485">
        <ele>143</ele>
        <time>2019-02-05T21:56:22.568Z</time>
      </trkpt>
      <trkpt lat="46.74477" lon="-0.07456">
        <ele>143</ele>
        <time>2019-02-05T21:56:23.023Z</time>
      </trkpt>
      <trkpt lat="46.74466" lon="-0.07437">
        <ele>143</ele>
        <time>2019-02-05T21:56:23.365Z</time>
      </trkpt>
      <trkpt lat="46.74445" lon="-0.07415">
        <ele>143</ele>
        <time>2019-02-05T21:56:23.883Z</time>
      </trkpt>
      <trkpt lat="46.74432" lon="-0.07397">
        <ele>142.7</ele>
        <time>2019-02-05T21:56:24.242Z</time>
      </trkpt>
      <trkpt lat="46.74424" lon="-0.07366">
        <ele>142.3</ele>
        <time>2019-02-05T21:56:24.697Z</time>
      </trkpt>
      <trkpt lat="46.74419" lon="-0.0732">
        <ele>142.1</ele>
        <time>2019-02-05T21:56:25.337Z</time>
      </trkpt>
      <trkpt lat="46.74414" lon="-0.07301">
        <ele>142.1</ele>
        <time>2019-02-05T21:56:25.616Z</time>
      </trkpt>
      <trkpt lat="46.74397" lon="-0.07267">
        <ele>142.3</ele>
        <time>2019-02-05T21:56:26.194Z</time>
      </trkpt>
      <trkpt lat="46.74386" lon="-0.0724">
        <ele>141.9</ele>
        <time>2019-02-05T21:56:26.625Z</time>
      </trkpt>
      <trkpt lat="46.74383" lon="-0.07213">
        <ele>141.8</ele>
        <time>2019-02-05T21:56:27.001Z</time>
      </trkpt>
      <trkpt lat="46.74384" lon="-0.07187">
        <ele>141.8</ele>
        <time>2019-02-05T21:56:27.359Z</time>
      </trkpt>
      <trkpt lat="46.74393" lon="-0.07149">
        <ele>142.1</ele>
        <time>2019-02-05T21:56:27.911Z</time>
      </trkpt>
      <trkpt lat="46.744" lon="-0.07135">
        <ele>142.4</ele>
        <time>2019-02-05T21:56:28.149Z</time>
      </trkpt>
      <trkpt lat="46.74419" lon="-0.07115">
        <ele>143</ele>
        <time>2019-02-05T21:56:28.618Z</time>
      </trkpt>
      <trkpt lat="46.74436" lon="-0.07086">
        <ele>143.6</ele>
        <time>2019-02-05T21:56:29.142Z</time>
      </trkpt>
      <trkpt lat="46.74441" lon="-0.07068">
        <ele>143.9</ele>
        <time>2019-02-05T21:56:29.409Z</time>
      </trkpt>
      <trkpt lat="46.74437" lon="-0.07062">
        <ele>143.7</ele>
        <time>2019-02-05T21:56:29.524Z</time>
      </trkpt>
      <trkpt lat="46.74423" lon="-0.07042">
        <ele>143.2</ele>
        <time>2019-02-05T21:56:29.917Z</time>
      </trkpt>
      <trkpt lat="46.7439" lon="-0.07006">
        <ele>142</ele>
        <time>2019-02-05T21:56:30.743Z</time>
      </trkpt>
      <trkpt lat="46.7438" lon="-0.06998">
        <ele>141.7</ele>
        <time>2019-02-05T21:56:30.972Z</time>
      </trkpt>
      <trkpt lat="46.74353" lon="-0.06973">
        <ele>140.7</ele>
        <time>2019-02-05T21:56:31.613Z</time>
      </trkpt>
      <trkpt lat="46.74322" lon="-0.06936">
        <ele>140</ele>
        <time>2019-02-05T21:56:32.416Z</time>
      </trkpt>
      <trkpt lat="46.74272" lon="-0.06875">
        <ele>138.8</ele>
        <time>2019-02-05T21:56:33.722Z</time>
      </trkpt>
      <trkpt lat="46.74243" lon="-0.06952">
        <ele>137.7</ele>
        <time>2019-02-05T21:56:34.929Z</time>
      </trkpt>
      <trkpt lat="46.74228" lon="-0.06985">
        <ele>137.2</ele>
        <time>2019-02-05T21:56:35.473Z</time>
      </trkpt>
      <trkpt lat="46.74204" lon="-0.07016">
        <ele>137.6</ele>
        <time>2019-02-05T21:56:36.115Z</time>
      </trkpt>
      <trkpt lat="46.74181" lon="-0.07032">
        <ele>138.1</ele>
        <time>2019-02-05T21:56:36.626Z</time>
      </trkpt>
      <trkpt lat="46.74154" lon="-0.07043">
        <ele>137.8</ele>
        <time>2019-02-05T21:56:37.188Z</time>
      </trkpt>
      <trkpt lat="46.74133" lon="-0.07048">
        <ele>137.5</ele>
        <time>2019-02-05T21:56:37.614Z</time>
      </trkpt>
      <trkpt lat="46.74083" lon="-0.07057">
        <ele>135.1</ele>
        <time>2019-02-05T21:56:38.624Z</time>
      </trkpt>
      <trkpt lat="46.74073" lon="-0.07058">
        <ele>134.4</ele>
        <time>2019-02-05T21:56:38.825Z</time>
      </trkpt>
      <trkpt lat="46.74033" lon="-0.07065">
        <ele>131.8</ele>
        <time>2019-02-05T21:56:39.632Z</time>
      </trkpt>
      <trkpt lat="46.74025" lon="-0.07052">
        <ele>131.3</ele>
        <time>2019-02-05T21:56:39.872Z</time>
      </trkpt>
      <trkpt lat="46.74" lon="-0.0704">
        <ele>132.1</ele>
        <time>2019-02-05T21:56:40.399Z</time>
      </trkpt>
      <trkpt lat="46.73984" lon="-0.07034">
        <ele>133</ele>
        <time>2019-02-05T21:56:40.730Z</time>
      </trkpt>
      <trkpt lat="46.73958" lon="-0.07017">
        <ele>135.5</ele>
        <time>2019-02-05T21:56:41.301Z</time>
      </trkpt>
      <trkpt lat="46.73954" lon="-0.07013">
        <ele>135.9</ele>
        <time>2019-02-05T21:56:41.398Z</time>
      </trkpt>
      <trkpt lat="46.73948" lon="-0.07012">
        <ele>136.1</ele>
        <time>2019-02-05T21:56:41.519Z</time>
      </trkpt>
      <trkpt lat="46.73923" lon="-0.06999">
        <ele>137.8</ele>
        <time>2019-02-05T21:56:42.051Z</time>
      </trkpt>
      <trkpt lat="46.73896" lon="-0.06982">
        <ele>138.6</ele>
        <time>2019-02-05T21:56:42.640Z</time>
      </trkpt>
      <trkpt lat="46.73862" lon="-0.06968">
        <ele>139.2</ele>
        <time>2019-02-05T21:56:43.348Z</time>
      </trkpt>
      <trkpt lat="46.73834" lon="-0.06958">
        <ele>139</ele>
        <time>2019-02-05T21:56:43.926Z</time>
      </trkpt>
      <trkpt lat="46.73816" lon="-0.06948">
        <ele>139.8</ele>
        <time>2019-02-05T21:56:44.312Z</time>
      </trkpt>
      <trkpt lat="46.73795" lon="-0.06921">
        <ele>140.9</ele>
        <time>2019-02-05T21:56:44.873Z</time>
      </trkpt>
      <trkpt lat="46.7379" lon="-0.0692">
        <ele>140.9</ele>
        <time>2019-02-05T21:56:44.974Z</time>
      </trkpt>
      <trkpt lat="46.73784" lon="-0.06923">
        <ele>140.9</ele>
        <time>2019-02-05T21:56:45.101Z</time>
      </trkpt>
      <trkpt lat="46.73772" lon="-0.06931">
        <ele>141.3</ele>
        <time>2019-02-05T21:56:45.365Z</time>
      </trkpt>
      <trkpt lat="46.73761" lon="-0.06943">
        <ele>141.6</ele>
        <time>2019-02-05T21:56:45.640Z</time>
      </trkpt>
      <trkpt lat="46.73754" lon="-0.06945">
        <ele>141.9</ele>
        <time>2019-02-05T21:56:45.783Z</time>
      </trkpt>
      <trkpt lat="46.73736" lon="-0.06932">
        <ele>142.7</ele>
        <time>2019-02-05T21:56:46.185Z</time>
      </trkpt>
      <trkpt lat="46.73697" lon="-0.06889">
        <ele>144</ele>
        <time>2019-02-05T21:56:47.165Z</time>
      </trkpt>
      <trkpt lat="46.73632" lon="-0.0679">
        <ele>145</ele>
        <time>2019-02-05T21:56:49.048Z</time>
      </trkpt>
      <trkpt lat="46.7362" lon="-0.06768">
        <ele>145</ele>
        <time>2019-02-05T21:56:49.434Z</time>
      </trkpt>
      <trkpt lat="46.73607" lon="-0.06737">
        <ele>145</ele>
        <time>2019-02-05T21:56:49.933Z</time>
      </trkpt>
      <trkpt lat="46.73602" lon="-0.0675">
        <ele>145</ele>
        <time>2019-02-05T21:56:50.138Z</time>
      </trkpt>
      <trkpt lat="46.73584" lon="-0.06797">
        <ele>144.3</ele>
        <time>2019-02-05T21:56:50.877Z</time>
      </trkpt>
      <trkpt lat="46.73581" lon="-0.06831">
        <ele>143</ele>
        <time>2019-02-05T21:56:51.348Z</time>
      </trkpt>
      <trkpt lat="46.7358" lon="-0.06842">
        <ele>142.6</ele>
        <time>2019-02-05T21:56:51.500Z</time>
      </trkpt>
      <trkpt lat="46.73569" lon="-0.06863">
        <ele>141.4</ele>
        <time>2019-02-05T21:56:51.863Z</time>
      </trkpt>
      <trkpt lat="46.73565" lon="-0.06875">
        <ele>141</ele>
        <time>2019-02-05T21:56:52.046Z</time>
      </trkpt>
      <trkpt lat="46.73567" lon="-0.06899">
        <ele>140.5</ele>
        <time>2019-02-05T21:56:52.378Z</time>
      </trkpt>
      <trkpt lat="46.73574" lon="-0.06927">
        <ele>140.1</ele>
        <time>2019-02-05T21:56:52.787Z</time>
      </trkpt>
      <trkpt lat="46.73583" lon="-0.0695">
        <ele>140</ele>
        <time>2019-02-05T21:56:53.151Z</time>
      </trkpt>
      <trkpt lat="46.7362" lon="-0.07029">
        <ele>140.3</ele>
        <time>2019-02-05T21:56:54.465Z</time>
      </trkpt>
      <trkpt lat="46.73628" lon="-0.07055">
        <ele>139.6</ele>
        <time>2019-02-05T21:56:54.856Z</time>
      </trkpt>
      <trkpt lat="46.73641" lon="-0.07074">
        <ele>140</ele>
        <time>2019-02-05T21:56:55.225Z</time>
      </trkpt>
      <trkpt lat="46.73646" lon="-0.07086">
        <ele>139.8</ele>
        <time>2019-02-05T21:56:55.418Z</time>
      </trkpt>
      <trkpt lat="46.73656" lon="-0.0713">
        <ele>137.9</ele>
        <time>2019-02-05T21:56:56.055Z</time>
      </trkpt>
      <trkpt lat="46.73666" lon="-0.07155">
        <ele>136.8</ele>
        <time>2019-02-05T21:56:56.453Z</time>
      </trkpt>
      <trkpt lat="46.73684" lon="-0.07185">
        <ele>133.4</ele>
        <time>2019-02-05T21:56:57.001Z</time>
      </trkpt>
      <trkpt lat="46.73701" lon="-0.07209">
        <ele>131</ele>
        <time>2019-02-05T21:56:57.475Z</time>
      </trkpt>
      <trkpt lat="46.73723" lon="-0.07233">
        <ele>128.4</ele>
        <time>2019-02-05T21:56:58.025Z</time>
      </trkpt>
      <trkpt lat="46.73681" lon="-0.07264">
        <ele>126.5</ele>
        <time>2019-02-05T21:56:58.968Z</time>
      </trkpt>
      <trkpt lat="46.73657" lon="-0.07281">
        <ele>125.1</ele>
        <time>2019-02-05T21:56:59.503Z</time>
      </trkpt>
      <trkpt lat="46.73638" lon="-0.07289">
        <ele>124.8</ele>
        <time>2019-02-05T21:56:59.899Z</time>
      </trkpt>
      <trkpt lat="46.73611" lon="-0.07294">
        <ele>123.8</ele>
        <time>2019-02-05T21:57:00.444Z</time>
      </trkpt>
      <trkpt lat="46.7359" lon="-0.07292">
        <ele>123.6</ele>
        <time>2019-02-05T21:57:00.866Z</time>
      </trkpt>
      <trkpt lat="46.73574" lon="-0.07279">
        <ele>123.6</ele>
        <time>2019-02-05T21:57:01.233Z</time>
      </trkpt>
      <trkpt lat="46.73562" lon="-0.07265">
        <ele>123.8</ele>
        <time>2019-02-05T21:57:01.541Z</time>
      </trkpt>
      <trkpt lat="46.73547" lon="-0.0724">
        <ele>123.9</ele>
        <time>2019-02-05T21:57:01.997Z</time>
      </trkpt>
      <trkpt lat="46.73531" lon="-0.07192">
        <ele>124.5</ele>
        <time>2019-02-05T21:57:02.730Z</time>
      </trkpt>
      <trkpt lat="46.73521" lon="-0.07157">
        <ele>125.9</ele>
        <time>2019-02-05T21:57:03.251Z</time>
      </trkpt>
      <trkpt lat="46.73515" lon="-0.0716">
        <ele>125</ele>
        <time>2019-02-05T21:57:03.371Z</time>
      </trkpt>
      <trkpt lat="46.73521" lon="-0.07157">
        <ele>125.9</ele>
        <time>2019-02-05T21:57:03.491Z</time>
      </trkpt>
      <trkpt lat="46.73506" lon="-0.07103">
        <ele>126.4</ele>
        <time>2019-02-05T21:57:04.291Z</time>
      </trkpt>
      <trkpt lat="46.73483" lon="-0.07008">
        <ele>125.9</ele>
        <time>2019-02-05T21:57:05.675Z</time>
      </trkpt>
      <trkpt lat="46.73472" lon="-0.06924">
        <ele>125</ele>
        <time>2019-02-05T21:57:06.850Z</time>
      </trkpt>
      <trkpt lat="46.7347" lon="-0.06893">
        <ele>124.9</ele>
        <time>2019-02-05T21:57:07.278Z</time>
      </trkpt>
      <trkpt lat="46.73477" lon="-0.06802">
        <ele>126.4</ele>
        <time>2019-02-05T21:57:08.536Z</time>
      </trkpt>
      <trkpt lat="46.73477" lon="-0.06776">
        <ele>127.5</ele>
        <time>2019-02-05T21:57:08.893Z</time>
      </trkpt>
      <trkpt lat="46.73472" lon="-0.06742">
        <ele>127.5</ele>
        <time>2019-02-05T21:57:09.371Z</time>
      </trkpt>
      <trkpt lat="46.73462" lon="-0.06694">
        <ele>127.8</ele>
        <time>2019-02-05T21:57:10.060Z</time>
      </trkpt>
      <trkpt lat="46.73453" lon="-0.06664">
        <ele>127.3</ele>
        <time>2019-02-05T21:57:10.510Z</time>
      </trkpt>
      <trkpt lat="46.7344" lon="-0.06638">
        <ele>126.6</ele>
        <time>2019-02-05T21:57:10.952Z</time>
      </trkpt>
      <trkpt lat="46.73425" lon="-0.06616">
        <ele>126</ele>
        <time>2019-02-05T21:57:11.378Z</time>
      </trkpt>
      <trkpt lat="46.73406" lon="-0.06585">
        <ele>126.7</ele>
        <time>2019-02-05T21:57:11.949Z</time>
      </trkpt>
      <trkpt lat="46.73392" lon="-0.06562">
        <ele>128.4</ele>
        <time>2019-02-05T21:57:12.371Z</time>
      </trkpt>
      <trkpt lat="46.73374" lon="-0.06539">
        <ele>129.8</ele>
        <time>2019-02-05T21:57:12.850Z</time>
      </trkpt>
      <trkpt lat="46.73323" lon="-0.06477">
        <ele>136.5</ele>
        <time>2019-02-05T21:57:14.180Z</time>
      </trkpt>
      <trkpt lat="46.73301" lon="-0.0644">
        <ele>140.3</ele>
        <time>2019-02-05T21:57:14.853Z</time>
      </trkpt>
      <trkpt lat="46.73286" lon="-0.06414">
        <ele>141.8</ele>
        <time>2019-02-05T21:57:15.320Z</time>
      </trkpt>
      <trkpt lat="46.73279" lon="-0.06404">
        <ele>142</ele>
        <time>2019-02-05T21:57:15.516Z</time>
      </trkpt>
      <trkpt lat="46.73275" lon="-0.06409">
        <ele>141.5</ele>
        <time>2019-02-05T21:57:15.622Z</time>
      </trkpt>
      <trkpt lat="46.7325" lon="-0.06424">
        <ele>139.5</ele>
        <time>2019-02-05T21:57:16.164Z</time>
      </trkpt>
      <trkpt lat="46.73234" lon="-0.06432">
        <ele>138.6</ele>
        <time>2019-02-05T21:57:16.503Z</time>
      </trkpt>
      <trkpt lat="46.73229" lon="-0.06421">
        <ele>139.6</ele>
        <time>2019-02-05T21:57:16.684Z</time>
      </trkpt>
      <trkpt lat="46.73216" lon="-0.06409">
        <ele>140.3</ele>
        <time>2019-02-05T21:57:16.992Z</time>
      </trkpt>
      <trkpt lat="46.73191" lon="-0.0639">
        <ele>140.7</ele>
        <time>2019-02-05T21:57:17.557Z</time>
      </trkpt>
      <trkpt lat="46.73184" lon="-0.06377">
        <ele>140.8</ele>
        <time>2019-02-05T21:57:17.784Z</time>
      </trkpt>
      <trkpt lat="46.73152" lon="-0.06283">
        <ele>141.9</ele>
        <time>2019-02-05T21:57:19.226Z</time>
      </trkpt>
      <trkpt lat="46.73148" lon="-0.06259">
        <ele>141.7</ele>
        <time>2019-02-05T21:57:19.565Z</time>
      </trkpt>
      <trkpt lat="46.73149" lon="-0.06234">
        <ele>141.9</ele>
        <time>2019-02-05T21:57:19.909Z</time>
      </trkpt>
      <trkpt lat="46.73162" lon="-0.0616">
        <ele>142.4</ele>
        <time>2019-02-05T21:57:20.958Z</time>
      </trkpt>
      <trkpt lat="46.73169" lon="-0.06135">
        <ele>143.1</ele>
        <time>2019-02-05T21:57:21.329Z</time>
      </trkpt>
      <trkpt lat="46.73177" lon="-0.0607">
        <ele>142.6</ele>
        <time>2019-02-05T21:57:22.236Z</time>
      </trkpt>
      <trkpt lat="46.73185" lon="-0.05983">
        <ele>142.7</ele>
        <time>2019-02-05T21:57:23.442Z</time>
      </trkpt>
      <trkpt lat="46.73186" lon="-0.05967">
        <ele>142.6</ele>
        <time>2019-02-05T21:57:23.663Z</time>
      </trkpt>
      <trkpt lat="46.73182" lon="-0.05941">
        <ele>141.9</ele>
        <time>2019-02-05T21:57:24.029Z</time>
      </trkpt>
      <trkpt lat="46.73178" lon="-0.05907">
        <ele>142</ele>
        <time>2019-02-05T21:57:24.503Z</time>
      </trkpt>
      <trkpt lat="46.73165" lon="-0.05842">
        <ele>142.7</ele>
        <time>2019-02-05T21:57:25.433Z</time>
      </trkpt>
      <trkpt lat="46.73153" lon="-0.0575">
        <ele>143</ele>
        <time>2019-02-05T21:57:26.719Z</time>
      </trkpt>
      <trkpt lat="46.73142" lon="-0.05744">
        <ele>142.4</ele>
        <time>2019-02-05T21:57:26.954Z</time>
      </trkpt>
      <trkpt lat="46.73129" lon="-0.05743">
        <ele>142</ele>
        <time>2019-02-05T21:57:27.215Z</time>
      </trkpt>
      <trkpt lat="46.73106" lon="-0.05748">
        <ele>141.1</ele>
        <time>2019-02-05T21:57:27.681Z</time>
      </trkpt>
      <trkpt lat="46.73082" lon="-0.05748">
        <ele>141</ele>
        <time>2019-02-05T21:57:28.162Z</time>
      </trkpt>
      <trkpt lat="46.73054" lon="-0.05738">
        <ele>140.8</ele>
        <time>2019-02-05T21:57:28.740Z</time>
      </trkpt>
      <trkpt lat="46.73039" lon="-0.05727">
        <ele>140.5</ele>
        <time>2019-02-05T21:57:29.076Z</time>
      </trkpt>
      <trkpt lat="46.73028" lon="-0.05722">
        <ele>140</ele>
        <time>2019-02-05T21:57:29.307Z</time>
      </trkpt>
      <trkpt lat="46.73014" lon="-0.0572">
        <ele>139.7</ele>
        <time>2019-02-05T21:57:29.589Z</time>
      </trkpt>
      <trkpt lat="46.72991" lon="-0.05725">
        <ele>138.1</ele>
        <time>2019-02-05T21:57:30.055Z</time>
      </trkpt>
      <trkpt lat="46.7296" lon="-0.05733">
        <ele>135.2</ele>
        <time>2019-02-05T21:57:30.686Z</time>
      </trkpt>
      <trkpt lat="46.7294" lon="-0.05735">
        <ele>133.8</ele>
        <time>2019-02-05T21:57:31.088Z</time>
      </trkpt>
      <trkpt lat="46.72918" lon="-0.05736">
        <ele>131.6</ele>
        <time>2019-02-05T21:57:31.529Z</time>
      </trkpt>
      <trkpt lat="46.72892" lon="-0.05729">
        <ele>129.8</ele>
        <time>2019-02-05T21:57:32.059Z</time>
      </trkpt>
      <trkpt lat="46.72876" lon="-0.05726">
        <ele>128.9</ele>
        <time>2019-02-05T21:57:32.382Z</time>
      </trkpt>
      <trkpt lat="46.72868" lon="-0.05727">
        <ele>128.4</ele>
        <time>2019-02-05T21:57:32.543Z</time>
      </trkpt>
      <trkpt lat="46.72858" lon="-0.05666">
        <ele>129.8</ele>
        <time>2019-02-05T21:57:33.405Z</time>
      </trkpt>
      <trkpt lat="46.72858" lon="-0.0565">
        <ele>129.8</ele>
        <time>2019-02-05T21:57:33.625Z</time>
      </trkpt>
      <trkpt lat="46.72883" lon="-0.05607">
        <ele>132.6</ele>
        <time>2019-02-05T21:57:34.400Z</time>
      </trkpt>
      <trkpt lat="46.72907" lon="-0.05567">
        <ele>133.1</ele>
        <time>2019-02-05T21:57:35.130Z</time>
      </trkpt>
      <trkpt lat="46.72927" lon="-0.05531">
        <ele>135.3</ele>
        <time>2019-02-05T21:57:35.767Z</time>
      </trkpt>
      <trkpt lat="46.72939" lon="-0.05501">
        <ele>137.6</ele>
        <time>2019-02-05T21:57:36.244Z</time>
      </trkpt>
      <trkpt lat="46.72933" lon="-0.05474">
        <ele>135.2</ele>
        <time>2019-02-05T21:57:36.635Z</time>
      </trkpt>
      <trkpt lat="46.72912" lon="-0.05466">
        <ele>130.3</ele>
        <time>2019-02-05T21:57:37.071Z</time>
      </trkpt>
      <trkpt lat="46.72917" lon="-0.05446">
        <ele>130.1</ele>
        <time>2019-02-05T21:57:37.363Z</time>
      </trkpt>
      <trkpt lat="46.72921" lon="-0.05386">
        <ele>129.6</ele>
        <time>2019-02-05T21:57:38.191Z</time>
      </trkpt>
      <trkpt lat="46.72923" lon="-0.05292">
        <ele>130.1</ele>
        <time>2019-02-05T21:57:39.483Z</time>
      </trkpt>
      <trkpt lat="46.72917" lon="-0.05231">
        <ele>129.8</ele>
        <time>2019-02-05T21:57:40.329Z</time>
      </trkpt>
      <trkpt lat="46.72911" lon="-0.05197">
        <ele>131.2</ele>
        <time>2019-02-05T21:57:40.811Z</time>
      </trkpt>
      <trkpt lat="46.72891" lon="-0.05142">
        <ele>130.4</ele>
        <time>2019-02-05T21:57:41.666Z</time>
      </trkpt>
      <trkpt lat="46.72848" lon="-0.05021">
        <ele>130.8</ele>
        <time>2019-02-05T21:57:43.538Z</time>
      </trkpt>
      <trkpt lat="46.72846" lon="-0.05018">
        <ele>130.7</ele>
        <time>2019-02-05T21:57:43.596Z</time>
      </trkpt>
      <trkpt lat="46.72843" lon="-0.05017">
        <ele>130.4</ele>
        <time>2019-02-05T21:57:43.658Z</time>
      </trkpt>
      <trkpt lat="46.72821" lon="-0.05052">
        <ele>129</ele>
        <time>2019-02-05T21:57:44.310Z</time>
      </trkpt>
      <trkpt lat="46.72801" lon="-0.05086">
        <ele>130.2</ele>
        <time>2019-02-05T21:57:44.925Z</time>
      </trkpt>
      <trkpt lat="46.72785" lon="-0.05109">
        <ele>130.7</ele>
        <time>2019-02-05T21:57:45.375Z</time>
      </trkpt>
      <trkpt lat="46.72769" lon="-0.05131">
        <ele>132.8</ele>
        <time>2019-02-05T21:57:45.816Z</time>
      </trkpt>
      <trkpt lat="46.72758" lon="-0.05156">
        <ele>134.3</ele>
        <time>2019-02-05T21:57:46.224Z</time>
      </trkpt>
      <trkpt lat="46.72749" lon="-0.05194">
        <ele>136</ele>
        <time>2019-02-05T21:57:46.776Z</time>
      </trkpt>
      <trkpt lat="46.72738" lon="-0.05252">
        <ele>138.5</ele>
        <time>2019-02-05T21:57:47.603Z</time>
      </trkpt>
      <trkpt lat="46.72733" lon="-0.05267">
        <ele>139</ele>
        <time>2019-02-05T21:57:47.832Z</time>
      </trkpt>
      <trkpt lat="46.72722" lon="-0.05288">
        <ele>140</ele>
        <time>2019-02-05T21:57:48.195Z</time>
      </trkpt>
      <trkpt lat="46.72673" lon="-0.0537">
        <ele>144.5</ele>
        <time>2019-02-05T21:57:49.689Z</time>
      </trkpt>
      <trkpt lat="46.7263" lon="-0.05439">
        <ele>147.3</ele>
        <time>2019-02-05T21:57:50.970Z</time>
      </trkpt>
      <trkpt lat="46.72533" lon="-0.05583">
        <ele>147.8</ele>
        <time>2019-02-05T21:57:53.743Z</time>
      </trkpt>
      <trkpt lat="46.7249" lon="-0.0565">
        <ele>147.2</ele>
        <time>2019-02-05T21:57:55.004Z</time>
      </trkpt>
      <trkpt lat="46.72431" lon="-0.05742">
        <ele>147.3</ele>
        <time>2019-02-05T21:57:56.735Z</time>
      </trkpt>
      <trkpt lat="46.72427" lon="-0.05753">
        <ele>147.5</ele>
        <time>2019-02-05T21:57:56.906Z</time>
      </trkpt>
      <trkpt lat="46.72417" lon="-0.05764">
        <ele>147.5</ele>
        <time>2019-02-05T21:57:57.157Z</time>
      </trkpt>
      <trkpt lat="46.72408" lon="-0.05778">
        <ele>147.3</ele>
        <time>2019-02-05T21:57:57.421Z</time>
      </trkpt>
      <trkpt lat="46.72391" lon="-0.05818">
        <ele>147.9</ele>
        <time>2019-02-05T21:57:58.068Z</time>
      </trkpt>
      <trkpt lat="46.72373" lon="-0.0585">
        <ele>148</ele>
        <time>2019-02-05T21:57:58.637Z</time>
      </trkpt>
      <trkpt lat="46.72365" lon="-0.05893">
        <ele>148</ele>
        <time>2019-02-05T21:57:59.249Z</time>
      </trkpt>
      <trkpt lat="46.72362" lon="-0.05907">
        <ele>148</ele>
        <time>2019-02-05T21:57:59.450Z</time>
      </trkpt>
      <trkpt lat="46.72347" lon="-0.05975">
        <ele>148.5</ele>
        <time>2019-02-05T21:58:00.431Z</time>
      </trkpt>
      <trkpt lat="46.72333" lon="-0.06029">
        <ele>149</ele>
        <time>2019-02-05T21:58:01.224Z</time>
      </trkpt>
      <trkpt lat="46.72326" lon="-0.06054">
        <ele>148.3</ele>
        <time>2019-02-05T21:58:01.595Z</time>
      </trkpt>
      <trkpt lat="46.7233" lon="-0.06065">
        <ele>148.1</ele>
        <time>2019-02-05T21:58:01.766Z</time>
      </trkpt>
      <trkpt lat="46.72341" lon="-0.0611">
        <ele>146.8</ele>
        <time>2019-02-05T21:58:02.422Z</time>
      </trkpt>
      <trkpt lat="46.72351" lon="-0.06151">
        <ele>145.6</ele>
        <time>2019-02-05T21:58:03.020Z</time>
      </trkpt>
      <trkpt lat="46.72358" lon="-0.06168">
        <ele>145.1</ele>
        <time>2019-02-05T21:58:03.292Z</time>
      </trkpt>
      <trkpt lat="46.72369" lon="-0.06201">
        <ele>144.9</ele>
        <time>2019-02-05T21:58:03.796Z</time>
      </trkpt>
      <trkpt lat="46.72385" lon="-0.06258">
        <ele>145.4</ele>
        <time>2019-02-05T21:58:04.642Z</time>
      </trkpt>
      <trkpt lat="46.72393" lon="-0.06284">
        <ele>146</ele>
        <time>2019-02-05T21:58:05.034Z</time>
      </trkpt>
      <trkpt lat="46.72412" lon="-0.06307">
        <ele>146.8</ele>
        <time>2019-02-05T21:58:05.529Z</time>
      </trkpt>
      <trkpt lat="46.72477" lon="-0.06402">
        <ele>148.4</ele>
        <time>2019-02-05T21:58:07.373Z</time>
      </trkpt>
      <trkpt lat="46.72489" lon="-0.06426">
        <ele>148.6</ele>
        <time>2019-02-05T21:58:07.781Z</time>
      </trkpt>
      <trkpt lat="46.72521" lon="-0.06474">
        <ele>148.2</ele>
        <time>2019-02-05T21:58:08.701Z</time>
      </trkpt>
      <trkpt lat="46.72537" lon="-0.06504">
        <ele>148.1</ele>
        <time>2019-02-05T21:58:09.223Z</time>
      </trkpt>
      <trkpt lat="46.72549" lon="-0.06539">
        <ele>148.2</ele>
        <time>2019-02-05T21:58:09.761Z</time>
      </trkpt>
      <trkpt lat="46.72564" lon="-0.06566">
        <ele>148.3</ele>
        <time>2019-02-05T21:58:10.238Z</time>
      </trkpt>
      <trkpt lat="46.72587" lon="-0.06596">
        <ele>147.9</ele>
        <time>2019-02-05T21:58:10.856Z</time>
      </trkpt>
      <trkpt lat="46.72604" lon="-0.06618">
        <ele>147.3</ele>
        <time>2019-02-05T21:58:11.311Z</time>
      </trkpt>
      <trkpt lat="46.72614" lon="-0.06638">
        <ele>146.8</ele>
        <time>2019-02-05T21:58:11.651Z</time>
      </trkpt>
      <trkpt lat="46.7263" lon="-0.06673">
        <ele>146.5</ele>
        <time>2019-02-05T21:58:12.229Z</time>
      </trkpt>
      <trkpt lat="46.72642" lon="-0.06691">
        <ele>146.8</ele>
        <time>2019-02-05T21:58:12.574Z</time>
      </trkpt>
      <trkpt lat="46.72688" lon="-0.06748">
        <ele>147.2</ele>
        <time>2019-02-05T21:58:13.783Z</time>
      </trkpt>
      <trkpt lat="46.72744" lon="-0.06806">
        <ele>148</ele>
        <time>2019-02-05T21:58:15.159Z</time>
      </trkpt>
      <trkpt lat="46.72772" lon="-0.06835">
        <ele>148</ele>
        <time>2019-02-05T21:58:15.847Z</time>
      </trkpt>
      <trkpt lat="46.72781" lon="-0.0685">
        <ele>147.9</ele>
        <time>2019-02-05T21:58:16.121Z</time>
      </trkpt>
      <trkpt lat="46.72786" lon="-0.06857">
        <ele>147.7</ele>
        <time>2019-02-05T21:58:16.260Z</time>
      </trkpt>
      <trkpt lat="46.72784" lon="-0.06867">
        <ele>147.8</ele>
        <time>2019-02-05T21:58:16.403Z</time>
      </trkpt>
      <trkpt lat="46.72773" lon="-0.06897">
        <ele>148.1</ele>
        <time>2019-02-05T21:58:16.870Z</time>
      </trkpt>
      <trkpt lat="46.72761" lon="-0.0692">
        <ele>148.6</ele>
        <time>2019-02-05T21:58:17.267Z</time>
      </trkpt>
      <trkpt lat="46.72739" lon="-0.06952">
        <ele>149.1</ele>
        <time>2019-02-05T21:58:17.890Z</time>
      </trkpt>
      <trkpt lat="46.72719" lon="-0.07">
        <ele>150.1</ele>
        <time>2019-02-05T21:58:18.662Z</time>
      </trkpt>
      <trkpt lat="46.72688" lon="-0.07058">
        <ele>151.3</ele>
        <time>2019-02-05T21:58:19.672Z</time>
      </trkpt>
      <trkpt lat="46.72637" lon="-0.07121">
        <ele>153.1</ele>
        <time>2019-02-05T21:58:21.011Z</time>
      </trkpt>
      <trkpt lat="46.7262" lon="-0.0715">
        <ele>153.8</ele>
        <time>2019-02-05T21:58:21.535Z</time>
      </trkpt>
      <trkpt lat="46.72619" lon="-0.07155">
        <ele>153.9</ele>
        <time>2019-02-05T21:58:21.607Z</time>
      </trkpt>
      <trkpt lat="46.72609" lon="-0.07162">
        <ele>154.1</ele>
        <time>2019-02-05T21:58:21.829Z</time>
      </trkpt>
      <trkpt lat="46.7256" lon="-0.07187">
        <ele>156</ele>
        <time>2019-02-05T21:58:22.869Z</time>
      </trkpt>
      <trkpt lat="46.72523" lon="-0.07205">
        <ele>156.4</ele>
        <time>2019-02-05T21:58:23.651Z</time>
      </trkpt>
      <trkpt lat="46.7249" lon="-0.07211">
        <ele>156.7</ele>
        <time>2019-02-05T21:58:24.317Z</time>
      </trkpt>
      <trkpt lat="46.72476" lon="-0.0721">
        <ele>156.9</ele>
        <time>2019-02-05T21:58:24.598Z</time>
      </trkpt>
      <trkpt lat="46.72375" lon="-0.07178">
        <ele>157</ele>
        <time>2019-02-05T21:58:26.669Z</time>
      </trkpt>
      <trkpt lat="46.72342" lon="-0.07175">
        <ele>157.2</ele>
        <time>2019-02-05T21:58:27.332Z</time>
      </trkpt>
      <trkpt lat="46.72316" lon="-0.07173">
        <ele>157.2</ele>
        <time>2019-02-05T21:58:27.854Z</time>
      </trkpt>
      <trkpt lat="46.72314" lon="-0.07172">
        <ele>157.2</ele>
        <time>2019-02-05T21:58:27.896Z</time>
      </trkpt>
      <trkpt lat="46.72312" lon="-0.07191">
        <ele>157.9</ele>
        <time>2019-02-05T21:58:28.160Z</time>
      </trkpt>
      <trkpt lat="46.72309" lon="-0.07227">
        <ele>158</ele>
        <time>2019-02-05T21:58:28.658Z</time>
      </trkpt>
      <trkpt lat="46.72309" lon="-0.07249">
        <ele>158</ele>
        <time>2019-02-05T21:58:28.960Z</time>
      </trkpt>
      <trkpt lat="46.72313" lon="-0.07295">
        <ele>158</ele>
        <time>2019-02-05T21:58:29.597Z</time>
      </trkpt>
      <trkpt lat="46.72314" lon="-0.07361">
        <ele>158</ele>
        <time>2019-02-05T21:58:30.504Z</time>
      </trkpt>
      <trkpt lat="46.72316" lon="-0.07418">
        <ele>157</ele>
        <time>2019-02-05T21:58:31.288Z</time>
      </trkpt>
      <trkpt lat="46.72325" lon="-0.07423">
        <ele>157</ele>
        <time>2019-02-05T21:58:31.481Z</time>
      </trkpt>
      <trkpt lat="46.72325" lon="-0.07429">
        <ele>157</ele>
        <time>2019-02-05T21:58:31.563Z</time>
      </trkpt>
      <trkpt lat="46.72326" lon="-0.07441">
        <ele>157</ele>
        <time>2019-02-05T21:58:31.729Z</time>
      </trkpt>
      <trkpt lat="46.72347" lon="-0.07544">
        <ele>157</ele>
        <time>2019-02-05T21:58:33.205Z</time>
      </trkpt>
      <trkpt lat="46.72358" lon="-0.07588">
        <ele>157</ele>
        <time>2019-02-05T21:58:33.848Z</time>
      </trkpt>
      <trkpt lat="46.72379" lon="-0.0763">
        <ele>157</ele>
        <time>2019-02-05T21:58:34.562Z</time>
      </trkpt>
      <trkpt lat="46.72407" lon="-0.07677">
        <ele>158</ele>
        <time>2019-02-05T21:58:35.417Z</time>
      </trkpt>
      <trkpt lat="46.72415" lon="-0.07685">
        <ele>158</ele>
        <time>2019-02-05T21:58:35.611Z</time>
      </trkpt>
      <trkpt lat="46.72438" lon="-0.07681">
        <ele>158</ele>
        <time>2019-02-05T21:58:36.075Z</time>
      </trkpt>
      <trkpt lat="46.72461" lon="-0.07678">
        <ele>158</ele>
        <time>2019-02-05T21:58:36.538Z</time>
      </trkpt>
      <trkpt lat="46.72488" lon="-0.07679">
        <ele>157.7</ele>
        <time>2019-02-05T21:58:37.079Z</time>
      </trkpt>
      <trkpt lat="46.72517" lon="-0.07696">
        <ele>157</ele>
        <time>2019-02-05T21:58:37.705Z</time>
      </trkpt>
      <trkpt lat="46.72533" lon="-0.07709">
        <ele>157</ele>
        <time>2019-02-05T21:58:38.072Z</time>
      </trkpt>
      <trkpt lat="46.7254" lon="-0.07717">
        <ele>157</ele>
        <time>2019-02-05T21:58:38.250Z</time>
      </trkpt>
      <trkpt lat="46.72547" lon="-0.07735">
        <ele>156.7</ele>
        <time>2019-02-05T21:58:38.534Z</time>
      </trkpt>
      <trkpt lat="46.72552" lon="-0.07784">
        <ele>156.3</ele>
        <time>2019-02-05T21:58:39.215Z</time>
      </trkpt>
      <trkpt lat="46.72551" lon="-0.07821">
        <ele>157</ele>
        <time>2019-02-05T21:58:39.724Z</time>
      </trkpt>
      <trkpt lat="46.72553" lon="-0.07836">
        <ele>157.1</ele>
        <time>2019-02-05T21:58:39.934Z</time>
      </trkpt>
      <trkpt lat="46.72559" lon="-0.07857">
        <ele>157.9</ele>
        <time>2019-02-05T21:58:40.247Z</time>
      </trkpt>
      <trkpt lat="46.72577" lon="-0.07901">
        <ele>158</ele>
        <time>2019-02-05T21:58:40.951Z</time>
      </trkpt>
      <trkpt lat="46.72558" lon="-0.07914">
        <ele>158</ele>
        <time>2019-02-05T21:58:41.372Z</time>
      </trkpt>
      <trkpt lat="46.7254" lon="-0.0793">
        <ele>158</ele>
        <time>2019-02-05T21:58:41.794Z</time>
      </trkpt>
      <trkpt lat="46.72514" lon="-0.07959">
        <ele>158</ele>
        <time>2019-02-05T21:58:42.450Z</time>
      </trkpt>
      <trkpt lat="46.72506" lon="-0.07972">
        <ele>158</ele>
        <time>2019-02-05T21:58:42.690Z</time>
      </trkpt>
      <trkpt lat="46.72501" lon="-0.07987">
        <ele>158</ele>
        <time>2019-02-05T21:58:42.919Z</time>
      </trkpt>
      <trkpt lat="46.72489" lon="-0.08028">
        <ele>158</ele>
        <time>2019-02-05T21:58:43.531Z</time>
      </trkpt>
      <trkpt lat="46.72475" lon="-0.08053">
        <ele>158</ele>
        <time>2019-02-05T21:58:43.974Z</time>
      </trkpt>
      <trkpt lat="46.72458" lon="-0.08073">
        <ele>158</ele>
        <time>2019-02-05T21:58:44.412Z</time>
      </trkpt>
      <trkpt lat="46.72437" lon="-0.08095">
        <ele>157.4</ele>
        <time>2019-02-05T21:58:44.930Z</time>
      </trkpt>
      <trkpt lat="46.72424" lon="-0.08106">
        <ele>157</ele>
        <time>2019-02-05T21:58:45.231Z</time>
      </trkpt>
      <trkpt lat="46.72411" lon="-0.08109">
        <ele>157</ele>
        <time>2019-02-05T21:58:45.495Z</time>
      </trkpt>
      <trkpt lat="46.72396" lon="-0.08109">
        <ele>157</ele>
        <time>2019-02-05T21:58:45.796Z</time>
      </trkpt>
      <trkpt lat="46.7238" lon="-0.08106">
        <ele>157</ele>
        <time>2019-02-05T21:58:46.119Z</time>
      </trkpt>
      <trkpt lat="46.72372" lon="-0.08104">
        <ele>157</ele>
        <time>2019-02-05T21:58:46.282Z</time>
      </trkpt>
      <trkpt lat="46.72354" lon="-0.08098">
        <ele>157</ele>
        <time>2019-02-05T21:58:46.652Z</time>
      </trkpt>
      <trkpt lat="46.7234" lon="-0.0809">
        <ele>157</ele>
        <time>2019-02-05T21:58:46.953Z</time>
      </trkpt>
      <trkpt lat="46.72344" lon="-0.08101">
        <ele>157</ele>
        <time>2019-02-05T21:58:47.124Z</time>
      </trkpt>
      <trkpt lat="46.72346" lon="-0.08105">
        <ele>157</ele>
        <time>2019-02-05T21:58:47.192Z</time>
      </trkpt>
      <trkpt lat="46.72342" lon="-0.08116">
        <ele>157</ele>
        <time>2019-02-05T21:58:47.363Z</time>
      </trkpt>
      <trkpt lat="46.72328" lon="-0.08147">
        <ele>157</ele>
        <time>2019-02-05T21:58:47.873Z</time>
      </trkpt>
      <trkpt lat="46.72248" lon="-0.08322">
        <ele>158</ele>
        <time>2019-02-05T21:58:50.763Z</time>
      </trkpt>
      <trkpt lat="46.72215" lon="-0.08397">
        <ele>158.5</ele>
        <time>2019-02-05T21:58:51.987Z</time>
      </trkpt>
      <trkpt lat="46.72192" lon="-0.08457">
        <ele>159</ele>
        <time>2019-02-05T21:58:52.931Z</time>
      </trkpt>
      <trkpt lat="46.7218" lon="-0.08482">
        <ele>159</ele>
        <time>2019-02-05T21:58:53.350Z</time>
      </trkpt>
      <trkpt lat="46.72167" lon="-0.08506">
        <ele>159</ele>
        <time>2019-02-05T21:58:53.770Z</time>
      </trkpt>
      <trkpt lat="46.7214" lon="-0.08542">
        <ele>159</ele>
        <time>2019-02-05T21:58:54.503Z</time>
      </trkpt>
      <trkpt lat="46.72112" lon="-0.08569">
        <ele>160</ele>
        <time>2019-02-05T21:58:55.176Z</time>
      </trkpt>
      <trkpt lat="46.72057" lon="-0.08599">
        <ele>160.9</ele>
        <time>2019-02-05T21:58:56.353Z</time>
      </trkpt>
      <trkpt lat="46.72028" lon="-0.08619">
        <ele>161</ele>
        <time>2019-02-05T21:58:56.996Z</time>
      </trkpt>
      <trkpt lat="46.71994" lon="-0.0865">
        <ele>162</ele>
        <time>2019-02-05T21:58:57.799Z</time>
      </trkpt>
      <trkpt lat="46.71922" lon="-0.08714">
        <ele>163</ele>
        <time>2019-02-05T21:58:59.489Z</time>
      </trkpt>
      <trkpt lat="46.71867" lon="-0.08761">
        <ele>163</ele>
        <time>2019-02-05T21:59:00.766Z</time>
      </trkpt>
      <trkpt lat="46.71856" lon="-0.08768">
        <ele>163</ele>
        <time>2019-02-05T21:59:01.007Z</time>
      </trkpt>
      <trkpt lat="46.71854" lon="-0.0874">
        <ele>163</ele>
        <time>2019-02-05T21:59:01.394Z</time>
      </trkpt>
      <trkpt lat="46.71854" lon="-0.0861">
        <ele>162.7</ele>
        <time>2019-02-05T21:59:03.180Z</time>
      </trkpt>
      <trkpt lat="46.71855" lon="-0.08409">
        <ele>161</ele>
        <time>2019-02-05T21:59:05.942Z</time>
      </trkpt>
      <trkpt lat="46.71853" lon="-0.0837">
        <ele>161</ele>
        <time>2019-02-05T21:59:06.479Z</time>
      </trkpt>
      <trkpt lat="46.7185" lon="-0.08348">
        <ele>161</ele>
        <time>2019-02-05T21:59:06.787Z</time>
      </trkpt>
      <trkpt lat="46.71838" lon="-0.08285">
        <ele>160.2</ele>
        <time>2019-02-05T21:59:07.685Z</time>
      </trkpt>
      <trkpt lat="46.71832" lon="-0.08259">
        <ele>160</ele>
        <time>2019-02-05T21:59:08.062Z</time>
      </trkpt>
      <trkpt lat="46.71815" lon="-0.08217">
        <ele>160</ele>
        <time>2019-02-05T21:59:08.732Z</time>
      </trkpt>
      <trkpt lat="46.71796" lon="-0.08172">
        <ele>159.1</ele>
        <time>2019-02-05T21:59:09.458Z</time>
      </trkpt>
      <trkpt lat="46.71772" lon="-0.08126">
        <ele>158.8</ele>
        <time>2019-02-05T21:59:10.252Z</time>
      </trkpt>
      <trkpt lat="46.71753" lon="-0.0809">
        <ele>158</ele>
        <time>2019-02-05T21:59:10.876Z</time>
      </trkpt>
      <trkpt lat="46.71739" lon="-0.08069">
        <ele>157.8</ele>
        <time>2019-02-05T21:59:11.278Z</time>
      </trkpt>
      <trkpt lat="46.71725" lon="-0.08044">
        <ele>158</ele>
        <time>2019-02-05T21:59:11.721Z</time>
      </trkpt>
      <trkpt lat="46.71711" lon="-0.08014">
        <ele>157.3</ele>
        <time>2019-02-05T21:59:12.220Z</time>
      </trkpt>
      <trkpt lat="46.71685" lon="-0.07939">
        <ele>156.7</ele>
        <time>2019-02-05T21:59:13.375Z</time>
      </trkpt>
      <trkpt lat="46.71674" lon="-0.07896">
        <ele>156.8</ele>
        <time>2019-02-05T21:59:14.006Z</time>
      </trkpt>
      <trkpt lat="46.71653" lon="-0.07842">
        <ele>156</ele>
        <time>2019-02-05T21:59:14.859Z</time>
      </trkpt>
      <trkpt lat="46.7164" lon="-0.0781">
        <ele>156</ele>
        <time>2019-02-05T21:59:15.370Z</time>
      </trkpt>
      <trkpt lat="46.71617" lon="-0.0776">
        <ele>156</ele>
        <time>2019-02-05T21:59:16.197Z</time>
      </trkpt>
      <trkpt lat="46.71608" lon="-0.07739">
        <ele>155.9</ele>
        <time>2019-02-05T21:59:16.537Z</time>
      </trkpt>
      <trkpt lat="46.71594" lon="-0.07752">
        <ele>155.4</ele>
        <time>2019-02-05T21:59:16.870Z</time>
      </trkpt>
      <trkpt lat="46.71568" lon="-0.07775">
        <ele>155.4</ele>
        <time>2019-02-05T21:59:17.479Z</time>
      </trkpt>
      <trkpt lat="46.71543" lon="-0.07791">
        <ele>155</ele>
        <time>2019-02-05T21:59:18.026Z</time>
      </trkpt>
      <trkpt lat="46.71522" lon="-0.0781">
        <ele>155</ele>
        <time>2019-02-05T21:59:18.521Z</time>
      </trkpt>
      <trkpt lat="46.71497" lon="-0.07839">
        <ele>154.7</ele>
        <time>2019-02-05T21:59:19.161Z</time>
      </trkpt>
      <trkpt lat="46.7148" lon="-0.07861">
        <ele>154</ele>
        <time>2019-02-05T21:59:19.616Z</time>
      </trkpt>
      <trkpt lat="46.71466" lon="-0.07881">
        <ele>153.8</ele>
        <time>2019-02-05T21:59:20.009Z</time>
      </trkpt>
      <trkpt lat="46.71435" lon="-0.07934">
        <ele>152</ele>
        <time>2019-02-05T21:59:20.966Z</time>
      </trkpt>
      <trkpt lat="46.71396" lon="-0.07983">
        <ele>148.4</ele>
        <time>2019-02-05T21:59:21.998Z</time>
      </trkpt>
      <trkpt lat="46.71394" lon="-0.07956">
        <ele>149</ele>
        <time>2019-02-05T21:59:22.371Z</time>
      </trkpt>
      <trkpt lat="46.71388" lon="-0.07929">
        <ele>149.5</ele>
        <time>2019-02-05T21:59:22.761Z</time>
      </trkpt>
      <trkpt lat="46.71369" lon="-0.0787">
        <ele>148.6</ele>
        <time>2019-02-05T21:59:23.657Z</time>
      </trkpt>
      <trkpt lat="46.71324" lon="-0.07749">
        <ele>149</ele>
        <time>2019-02-05T21:59:25.548Z</time>
      </trkpt>
      <trkpt lat="46.71308" lon="-0.07712">
        <ele>149.5</ele>
        <time>2019-02-05T21:59:26.149Z</time>
      </trkpt>
      <trkpt lat="46.71298" lon="-0.07702">
        <ele>149.1</ele>
        <time>2019-02-05T21:59:26.392Z</time>
      </trkpt>
      <trkpt lat="46.71278" lon="-0.0769">
        <ele>148.3</ele>
        <time>2019-02-05T21:59:26.825Z</time>
      </trkpt>
      <trkpt lat="46.71243" lon="-0.07674">
        <ele>146.8</ele>
        <time>2019-02-05T21:59:27.560Z</time>
      </trkpt>
      <trkpt lat="46.71231" lon="-0.07665">
        <ele>146</ele>
        <time>2019-02-05T21:59:27.830Z</time>
      </trkpt>
      <trkpt lat="46.71218" lon="-0.07652">
        <ele>145.7</ele>
        <time>2019-02-05T21:59:28.146Z</time>
      </trkpt>
      <trkpt lat="46.71199" lon="-0.07626">
        <ele>145</ele>
        <time>2019-02-05T21:59:28.668Z</time>
      </trkpt>
      <trkpt lat="46.71187" lon="-0.07593">
        <ele>145.5</ele>
        <time>2019-02-05T21:59:29.181Z</time>
      </trkpt>
      <trkpt lat="46.71183" lon="-0.07583">
        <ele>145.6</ele>
        <time>2019-02-05T21:59:29.340Z</time>
      </trkpt>
      <trkpt lat="46.71181" lon="-0.07584">
        <ele>145.5</ele>
        <time>2019-02-05T21:59:29.382Z</time>
      </trkpt>
      <trkpt lat="46.71169" lon="-0.07588">
        <ele>145.1</ele>
        <time>2019-02-05T21:59:29.629Z</time>
      </trkpt>
      <trkpt lat="46.71157" lon="-0.07589">
        <ele>145.3</ele>
        <time>2019-02-05T21:59:29.870Z</time>
      </trkpt>
      <trkpt lat="46.71136" lon="-0.07586">
        <ele>146.2</ele>
        <time>2019-02-05T21:59:30.293Z</time>
      </trkpt>
      <trkpt lat="46.71114" lon="-0.07579">
        <ele>147.8</ele>
        <time>2019-02-05T21:59:30.744Z</time>
      </trkpt>
      <trkpt lat="46.71084" lon="-0.07565">
        <ele>149</ele>
        <time>2019-02-05T21:59:31.375Z</time>
      </trkpt>
      <trkpt lat="46.71061" lon="-0.07553">
        <ele>150.6</ele>
        <time>2019-02-05T21:59:31.865Z</time>
      </trkpt>
      <trkpt lat="46.71048" lon="-0.07549">
        <ele>151.3</ele>
        <time>2019-02-05T21:59:32.131Z</time>
      </trkpt>
      <trkpt lat="46.7104" lon="-0.07548">
        <ele>151.7</ele>
        <time>2019-02-05T21:59:32.292Z</time>
      </trkpt>
      <trkpt lat="46.71031" lon="-0.07552">
        <ele>152</ele>
        <time>2019-02-05T21:59:32.481Z</time>
      </trkpt>
      <trkpt lat="46.71013" lon="-0.0756">
        <ele>153.1</ele>
        <time>2019-02-05T21:59:32.858Z</time>
      </trkpt>
      <trkpt lat="46.70972" lon="-0.07581">
        <ele>154</ele>
        <time>2019-02-05T21:59:33.729Z</time>
      </trkpt>
      <trkpt lat="46.70906" lon="-0.07628">
        <ele>156</ele>
        <time>2019-02-05T21:59:35.201Z</time>
      </trkpt>
      <trkpt lat="46.70879" lon="-0.07647">
        <ele>156.5</ele>
        <time>2019-02-05T21:59:35.802Z</time>
      </trkpt>
      <trkpt lat="46.70835" lon="-0.0767">
        <ele>157</ele>
        <time>2019-02-05T21:59:36.739Z</time>
      </trkpt>
      <trkpt lat="46.708" lon="-0.07688">
        <ele>157</ele>
        <time>2019-02-05T21:59:37.483Z</time>
      </trkpt>
      <trkpt lat="46.70787" lon="-0.07692">
        <ele>157</ele>
        <time>2019-02-05T21:59:37.749Z</time>
      </trkpt>
      <trkpt lat="46.7078" lon="-0.07694">
        <ele>157</ele>
        <time>2019-02-05T21:59:37.892Z</time>
      </trkpt>
      <trkpt lat="46.70776" lon="-0.07691">
        <ele>157</ele>
        <time>2019-02-05T21:59:37.982Z</time>
      </trkpt>
      <trkpt lat="46.70767" lon="-0.07686">
        <ele>157</ele>
        <time>2019-02-05T21:59:38.175Z</time>
      </trkpt>
      <trkpt lat="46.70754" lon="-0.07673">
        <ele>157</ele>
        <time>2019-02-05T21:59:38.491Z</time>
      </trkpt>
      <trkpt lat="46.70708" lon="-0.07626">
        <ele>155.3</ele>
        <time>2019-02-05T21:59:39.617Z</time>
      </trkpt>
      <trkpt lat="46.70681" lon="-0.07597">
        <ele>154.3</ele>
        <time>2019-02-05T21:59:40.289Z</time>
      </trkpt>
      <trkpt lat="46.70673" lon="-0.07589">
        <ele>154</ele>
        <time>2019-02-05T21:59:40.483Z</time>
      </trkpt>
      <trkpt lat="46.70674" lon="-0.0758">
        <ele>154</ele>
        <time>2019-02-05T21:59:40.608Z</time>
      </trkpt>
      <trkpt lat="46.70656" lon="-0.0757">
        <ele>154.4</ele>
        <time>2019-02-05T21:59:40.994Z</time>
      </trkpt>
      <trkpt lat="46.70642" lon="-0.07556">
        <ele>154.9</ele>
        <time>2019-02-05T21:59:41.334Z</time>
      </trkpt>
      <trkpt lat="46.70604" lon="-0.07516">
        <ele>155.3</ele>
        <time>2019-02-05T21:59:42.273Z</time>
      </trkpt>
      <trkpt lat="46.70474" lon="-0.07375">
        <ele>155</ele>
        <time>2019-02-05T21:59:45.520Z</time>
      </trkpt>
      <trkpt lat="46.70408" lon="-0.07299">
        <ele>154.8</ele>
        <time>2019-02-05T21:59:47.205Z</time>
      </trkpt>
      <trkpt lat="46.70389" lon="-0.07266">
        <ele>154.6</ele>
        <time>2019-02-05T21:59:47.797Z</time>
      </trkpt>
      <trkpt lat="46.70368" lon="-0.07224">
        <ele>154</ele>
        <time>2019-02-05T21:59:48.511Z</time>
      </trkpt>
      <trkpt lat="46.70359" lon="-0.07214">
        <ele>154</ele>
        <time>2019-02-05T21:59:48.738Z</time>
      </trkpt>
      <trkpt lat="46.70349" lon="-0.07211">
        <ele>153.8</ele>
        <time>2019-02-05T21:59:48.943Z</time>
      </trkpt>
      <trkpt lat="46.70338" lon="-0.07215">
        <ele>153.8</ele>
        <time>2019-02-05T21:59:49.170Z</time>
      </trkpt>
      <trkpt lat="46.7031" lon="-0.07248">
        <ele>153.9</ele>
        <time>2019-02-05T21:59:49.891Z</time>
      </trkpt>
      <trkpt lat="46.70298" lon="-0.0726">
        <ele>153.8</ele>
        <time>2019-02-05T21:59:50.183Z</time>
      </trkpt>
      <trkpt lat="46.70291" lon="-0.07261">
        <ele>153.7</ele>
        <time>2019-02-05T21:59:50.324Z</time>
      </trkpt>
      <trkpt lat="46.70264" lon="-0.07259">
        <ele>152.8</ele>
        <time>2019-02-05T21:59:50.866Z</time>
      </trkpt>
      <trkpt lat="46.70241" lon="-0.07261">
        <ele>151.7</ele>
        <time>2019-02-05T21:59:51.328Z</time>
      </trkpt>
      <trkpt lat="46.70235" lon="-0.07295">
        <ele>152.3</ele>
        <time>2019-02-05T21:59:51.810Z</time>
      </trkpt>
      <trkpt lat="46.70234" lon="-0.07312">
        <ele>152.5</ele>
        <time>2019-02-05T21:59:52.044Z</time>
      </trkpt>
      <trkpt lat="46.70235" lon="-0.07339">
        <ele>153</ele>
        <time>2019-02-05T21:59:52.416Z</time>
      </trkpt>
      <trkpt lat="46.7024" lon="-0.0736">
        <ele>153.6</ele>
        <time>2019-02-05T21:59:52.721Z</time>
      </trkpt>
      <trkpt lat="46.70254" lon="-0.07389">
        <ele>154.1</ele>
        <time>2019-02-05T21:59:53.208Z</time>
      </trkpt>
      <trkpt lat="46.70275" lon="-0.07423">
        <ele>154.9</ele>
        <time>2019-02-05T21:59:53.837Z</time>
      </trkpt>
      <trkpt lat="46.70275" lon="-0.07443">
        <ele>154.9</ele>
        <time>2019-02-05T21:59:54.112Z</time>
      </trkpt>
      <trkpt lat="46.70258" lon="-0.07521">
        <ele>154.3</ele>
        <time>2019-02-05T21:59:55.237Z</time>
      </trkpt>
      <trkpt lat="46.7023" lon="-0.07621">
        <ele>152.8</ele>
        <time>2019-02-05T21:59:56.721Z</time>
      </trkpt>
      <trkpt lat="46.70207" lon="-0.07688">
        <ele>149.5</ele>
        <time>2019-02-05T21:59:57.751Z</time>
      </trkpt>
      <trkpt lat="46.70191" lon="-0.07743">
        <ele>146</ele>
        <time>2019-02-05T21:59:58.572Z</time>
      </trkpt>
      <trkpt lat="46.70189" lon="-0.07755">
        <ele>145.3</ele>
        <time>2019-02-05T21:59:58.742Z</time>
      </trkpt>
      <trkpt lat="46.70187" lon="-0.07781">
        <ele>144</ele>
        <time>2019-02-05T21:59:59.102Z</time>
      </trkpt>
      <trkpt lat="46.70179" lon="-0.07806">
        <ele>144</ele>
        <time>2019-02-05T21:59:59.481Z</time>
      </trkpt>
      <trkpt lat="46.7017" lon="-0.07823">
        <ele>144</ele>
        <time>2019-02-05T21:59:59.776Z</time>
      </trkpt>
      <trkpt lat="46.70203" lon="-0.07868">
        <ele>145.2</ele>
        <time>2019-02-05T22:00:00.681Z</time>
      </trkpt>
      <trkpt lat="46.7021" lon="-0.07879">
        <ele>145.6</ele>
        <time>2019-02-05T22:00:00.887Z</time>
      </trkpt>
      <trkpt lat="46.70217" lon="-0.07899">
        <ele>146.1</ele>
        <time>2019-02-05T22:00:01.196Z</time>
      </trkpt>
      <trkpt lat="46.70225" lon="-0.07938">
        <ele>146.9</ele>
        <time>2019-02-05T22:00:01.755Z</time>
      </trkpt>
      <trkpt lat="46.70233" lon="-0.07981">
        <ele>148.4</ele>
        <time>2019-02-05T22:00:02.367Z</time>
      </trkpt>
      <trkpt lat="46.70234" lon="-0.07993">
        <ele>148.4</ele>
        <time>2019-02-05T22:00:02.533Z</time>
      </trkpt>
      <trkpt lat="46.70234" lon="-0.08002">
        <ele>148.5</ele>
        <time>2019-02-05T22:00:02.657Z</time>
      </trkpt>
      <trkpt lat="46.70226" lon="-0.08009">
        <ele>148.4</ele>
        <time>2019-02-05T22:00:02.844Z</time>
      </trkpt>
      <trkpt lat="46.70181" lon="-0.08045">
        <ele>152.6</ele>
        <time>2019-02-05T22:00:03.873Z</time>
      </trkpt>
      <trkpt lat="46.70144" lon="-0.08072">
        <ele>154.5</ele>
        <time>2019-02-05T22:00:04.702Z</time>
      </trkpt>
      <trkpt lat="46.70038" lon="-0.08152">
        <ele>156.8</ele>
        <time>2019-02-05T22:00:07.094Z</time>
      </trkpt>
      <trkpt lat="46.69954" lon="-0.08221">
        <ele>158</ele>
        <time>2019-02-05T22:00:09.026Z</time>
      </trkpt>
      <trkpt lat="46.69941" lon="-0.08236">
        <ele>158.4</ele>
        <time>2019-02-05T22:00:09.358Z</time>
      </trkpt>
      <trkpt lat="46.69974" lon="-0.08317">
        <ele>158.9</ele>
        <time>2019-02-05T22:00:10.653Z</time>
      </trkpt>
      <trkpt lat="46.69997" lon="-0.08371">
        <ele>159</ele>
        <time>2019-02-05T22:00:11.527Z</time>
      </trkpt>
      <trkpt lat="46.70023" lon="-0.08439">
        <ele>159</ele>
        <time>2019-02-05T22:00:12.597Z</time>
      </trkpt>
      <trkpt lat="46.70056" lon="-0.08545">
        <ele>159.6</ele>
        <time>2019-02-05T22:00:14.197Z</time>
      </trkpt>
      <trkpt lat="46.70066" lon="-0.08591">
        <ele>159.6</ele>
        <time>2019-02-05T22:00:14.860Z</time>
      </trkpt>
      <trkpt lat="46.7007" lon="-0.08622">
        <ele>159.5</ele>
        <time>2019-02-05T22:00:15.294Z</time>
      </trkpt>
      <trkpt lat="46.70068" lon="-0.08658">
        <ele>159.6</ele>
        <time>2019-02-05T22:00:15.790Z</time>
      </trkpt>
      <trkpt lat="46.70051" lon="-0.08741">
        <ele>160.1</ele>
        <time>2019-02-05T22:00:16.980Z</time>
      </trkpt>
      <trkpt lat="46.70045" lon="-0.08782">
        <ele>160.4</ele>
        <time>2019-02-05T22:00:17.556Z</time>
      </trkpt>
      <trkpt lat="46.70043" lon="-0.08808">
        <ele>160.5</ele>
        <time>2019-02-05T22:00:17.916Z</time>
      </trkpt>
      <trkpt lat="46.70045" lon="-0.08836">
        <ele>160.4</ele>
        <time>2019-02-05T22:00:18.303Z</time>
      </trkpt>
      <trkpt lat="46.7005" lon="-0.08894">
        <ele>161</ele>
        <time>2019-02-05T22:00:19.106Z</time>
      </trkpt>
      <trkpt lat="46.70062" lon="-0.08956">
        <ele>160.9</ele>
        <time>2019-02-05T22:00:19.991Z</time>
      </trkpt>
      <trkpt lat="46.70066" lon="-0.08984">
        <ele>161</ele>
        <time>2019-02-05T22:00:20.384Z</time>
      </trkpt>
      <trkpt lat="46.70066" lon="-0.09003">
        <ele>161</ele>
        <time>2019-02-05T22:00:20.645Z</time>
      </trkpt>
      <trkpt lat="46.70073" lon="-0.09087">
        <ele>161.4</ele>
        <time>2019-02-05T22:00:21.808Z</time>
      </trkpt>
      <trkpt lat="46.70077" lon="-0.09144">
        <ele>162</ele>
        <time>2019-02-05T22:00:22.595Z</time>
      </trkpt>
      <trkpt lat="46.70084" lon="-0.09174">
        <ele>162</ele>
        <time>2019-02-05T22:00:23.031Z</time>
      </trkpt>
      <trkpt lat="46.70096" lon="-0.09213">
        <ele>162</ele>
        <time>2019-02-05T22:00:23.618Z</time>
      </trkpt>
      <trkpt lat="46.70122" lon="-0.0927">
        <ele>162.6</ele>
        <time>2019-02-05T22:00:24.559Z</time>
      </trkpt>
      <trkpt lat="46.70142" lon="-0.09312">
        <ele>162.7</ele>
        <time>2019-02-05T22:00:25.262Z</time>
      </trkpt>
      <trkpt lat="46.70162" lon="-0.09365">
        <ele>162.1</ele>
        <time>2019-02-05T22:00:26.093Z</time>
      </trkpt>
      <trkpt lat="46.70181" lon="-0.09428">
        <ele>162</ele>
        <time>2019-02-05T22:00:27.039Z</time>
      </trkpt>
      <trkpt lat="46.70197" lon="-0.0949">
        <ele>162.6</ele>
        <time>2019-02-05T22:00:27.949Z</time>
      </trkpt>
      <trkpt lat="46.70203" lon="-0.09502">
        <ele>162.6</ele>
        <time>2019-02-05T22:00:28.153Z</time>
      </trkpt>
      <trkpt lat="46.70178" lon="-0.09501">
        <ele>163</ele>
        <time>2019-02-05T22:00:28.654Z</time>
      </trkpt>
      <trkpt lat="46.70155" lon="-0.09506">
        <ele>162.9</ele>
        <time>2019-02-05T22:00:29.120Z</time>
      </trkpt>
      <trkpt lat="46.70122" lon="-0.09522">
        <ele>163</ele>
        <time>2019-02-05T22:00:29.817Z</time>
      </trkpt>
      <trkpt lat="46.70098" lon="-0.09537">
        <ele>163</ele>
        <time>2019-02-05T22:00:30.340Z</time>
      </trkpt>
      <trkpt lat="46.70064" lon="-0.09568">
        <ele>163.3</ele>
        <time>2019-02-05T22:00:31.144Z</time>
      </trkpt>
      <trkpt lat="46.69976" lon="-0.09653">
        <ele>164</ele>
        <time>2019-02-05T22:00:33.259Z</time>
      </trkpt>
      <trkpt lat="46.69928" lon="-0.0969">
        <ele>165</ele>
        <time>2019-02-05T22:00:34.347Z</time>
      </trkpt>
      <trkpt lat="46.69903" lon="-0.09714">
        <ele>165</ele>
        <time>2019-02-05T22:00:34.947Z</time>
      </trkpt>
      <trkpt lat="46.69891" lon="-0.09691">
        <ele>165</ele>
        <time>2019-02-05T22:00:35.344Z</time>
      </trkpt>
      <trkpt lat="46.69887" lon="-0.09686">
        <ele>165</ele>
        <time>2019-02-05T22:00:35.450Z</time>
      </trkpt>
      <trkpt lat="46.69884" lon="-0.09694">
        <ele>164.8</ele>
        <time>2019-02-05T22:00:35.575Z</time>
      </trkpt>
      <trkpt lat="46.69879" lon="-0.09715">
        <ele>164.6</ele>
        <time>2019-02-05T22:00:35.881Z</time>
      </trkpt>
      <trkpt lat="46.69872" lon="-0.09751">
        <ele>164.4</ele>
        <time>2019-02-05T22:00:36.395Z</time>
      </trkpt>
      <trkpt lat="46.69848" lon="-0.09867">
        <ele>164.6</ele>
        <time>2019-02-05T22:00:38.060Z</time>
      </trkpt>
      <trkpt lat="46.69838" lon="-0.09902">
        <ele>165</ele>
        <time>2019-02-05T22:00:38.581Z</time>
      </trkpt>
      <trkpt lat="46.698" lon="-0.1">
        <ele>165</ele>
        <time>2019-02-05T22:00:40.128Z</time>
      </trkpt>
      <trkpt lat="46.69754" lon="-0.10123">
        <ele>165.5</ele>
        <time>2019-02-05T22:00:42.053Z</time>
      </trkpt>
      <trkpt lat="46.69726" lon="-0.10212">
        <ele>165</ele>
        <time>2019-02-05T22:00:43.399Z</time>
      </trkpt>
      <trkpt lat="46.69714" lon="-0.10248">
        <ele>165</ele>
        <time>2019-02-05T22:00:43.949Z</time>
      </trkpt>
      <trkpt lat="46.69698" lon="-0.10282">
        <ele>164.9</ele>
        <time>2019-02-05T22:00:44.516Z</time>
      </trkpt>
      <trkpt lat="46.69653" lon="-0.10353">
        <ele>165.5</ele>
        <time>2019-02-05T22:00:45.845Z</time>
      </trkpt>
      <trkpt lat="46.6963" lon="-0.10389">
        <ele>166</ele>
        <time>2019-02-05T22:00:46.521Z</time>
      </trkpt>
      <trkpt lat="46.69618" lon="-0.104">
        <ele>166</ele>
        <time>2019-02-05T22:00:46.805Z</time>
      </trkpt>
      <trkpt lat="46.69603" lon="-0.10411">
        <ele>166.3</ele>
        <time>2019-02-05T22:00:47.141Z</time>
      </trkpt>
      <trkpt lat="46.69575" lon="-0.1043">
        <ele>167</ele>
        <time>2019-02-05T22:00:47.760Z</time>
      </trkpt>
      <trkpt lat="46.6954" lon="-0.10452">
        <ele>167.7</ele>
        <time>2019-02-05T22:00:48.524Z</time>
      </trkpt>
      <trkpt lat="46.69526" lon="-0.10454">
        <ele>168.1</ele>
        <time>2019-02-05T22:00:48.806Z</time>
      </trkpt>
      <trkpt lat="46.69513" lon="-0.10451">
        <ele>168.5</ele>
        <time>2019-02-05T22:00:49.070Z</time>
      </trkpt>
      <trkpt lat="46.69502" lon="-0.10452">
        <ele>168.9</ele>
        <time>2019-02-05T22:00:49.291Z</time>
      </trkpt>
      <trkpt lat="46.69496" lon="-0.1046">
        <ele>169</ele>
        <time>2019-02-05T22:00:49.454Z</time>
      </trkpt>
      <trkpt lat="46.69487" lon="-0.10506">
        <ele>169</ele>
        <time>2019-02-05T22:00:50.111Z</time>
      </trkpt>
      <trkpt lat="46.69481" lon="-0.10531">
        <ele>169</ele>
        <time>2019-02-05T22:00:50.475Z</time>
      </trkpt>
      <trkpt lat="46.69473" lon="-0.10554">
        <ele>169</ele>
        <time>2019-02-05T22:00:50.829Z</time>
      </trkpt>
      <trkpt lat="46.69468" lon="-0.10565">
        <ele>169</ele>
        <time>2019-02-05T22:00:51.010Z</time>
      </trkpt>
      <trkpt lat="46.69465" lon="-0.10575">
        <ele>169</ele>
        <time>2019-02-05T22:00:51.160Z</time>
      </trkpt>
      <trkpt lat="46.69466" lon="-0.10582">
        <ele>169</ele>
        <time>2019-02-05T22:00:51.258Z</time>
      </trkpt>
      <trkpt lat="46.69462" lon="-0.10594">
        <ele>169</ele>
        <time>2019-02-05T22:00:51.441Z</time>
      </trkpt>
      <trkpt lat="46.69453" lon="-0.10613">
        <ele>169</ele>
        <time>2019-02-05T22:00:51.758Z</time>
      </trkpt>
      <trkpt lat="46.69432" lon="-0.10641">
        <ele>168.6</ele>
        <time>2019-02-05T22:00:52.328Z</time>
      </trkpt>
      <trkpt lat="46.6941" lon="-0.10665">
        <ele>168</ele>
        <time>2019-02-05T22:00:52.879Z</time>
      </trkpt>
      <trkpt lat="46.69366" lon="-0.10706">
        <ele>166.7</ele>
        <time>2019-02-05T22:00:53.925Z</time>
      </trkpt>
      <trkpt lat="46.69348" lon="-0.1072">
        <ele>166</ele>
        <time>2019-02-05T22:00:54.334Z</time>
      </trkpt>
      <trkpt lat="46.69333" lon="-0.10726">
        <ele>166</ele>
        <time>2019-02-05T22:00:54.646Z</time>
      </trkpt>
      <trkpt lat="46.69316" lon="-0.10728">
        <ele>165.4</ele>
        <time>2019-02-05T22:00:54.988Z</time>
      </trkpt>
      <trkpt lat="46.69291" lon="-0.10736">
        <ele>164.7</ele>
        <time>2019-02-05T22:00:55.501Z</time>
      </trkpt>
      <trkpt lat="46.69262" lon="-0.10752">
        <ele>164</ele>
        <time>2019-02-05T22:00:56.122Z</time>
      </trkpt>
      <trkpt lat="46.69198" lon="-0.10794">
        <ele>164</ele>
        <time>2019-02-05T22:00:57.528Z</time>
      </trkpt>
      <trkpt lat="46.69129" lon="-0.10831">
        <ele>163.1</ele>
        <time>2019-02-05T22:00:59.001Z</time>
      </trkpt>
      <trkpt lat="46.69113" lon="-0.10836">
        <ele>162.9</ele>
        <time>2019-02-05T22:00:59.329Z</time>
      </trkpt>
      <trkpt lat="46.69128" lon="-0.10846">
        <ele>162.5</ele>
        <time>2019-02-05T22:00:59.660Z</time>
      </trkpt>
      <trkpt lat="46.69144" lon="-0.10866">
        <ele>162</ele>
        <time>2019-02-05T22:01:00.082Z</time>
      </trkpt>
      <trkpt lat="46.69182" lon="-0.10912">
        <ele>164</ele>
        <time>2019-02-05T22:01:01.072Z</time>
      </trkpt>
      <trkpt lat="46.69205" lon="-0.1094">
        <ele>165.4</ele>
        <time>2019-02-05T22:01:01.672Z</time>
      </trkpt>
      <trkpt lat="46.69221" lon="-0.10944">
        <ele>166</ele>
        <time>2019-02-05T22:01:01.997Z</time>
      </trkpt>
      <trkpt lat="46.69224" lon="-0.10949">
        <ele>166.3</ele>
        <time>2019-02-05T22:01:02.088Z</time>
      </trkpt>
      <trkpt lat="46.69239" lon="-0.1098">
        <ele>167.8</ele>
        <time>2019-02-05T22:01:02.609Z</time>
      </trkpt>
      <trkpt lat="46.69239" lon="-0.10992">
        <ele>168</ele>
        <time>2019-02-05T22:01:02.774Z</time>
      </trkpt>
      <trkpt lat="46.69238" lon="-0.11001">
        <ele>168.2</ele>
        <time>2019-02-05T22:01:02.899Z</time>
      </trkpt>
      <trkpt lat="46.69239" lon="-0.11014">
        <ele>168.7</ele>
        <time>2019-02-05T22:01:03.079Z</time>
      </trkpt>
      <trkpt lat="46.6925" lon="-0.11045">
        <ele>170.6</ele>
        <time>2019-02-05T22:01:03.559Z</time>
      </trkpt>
      <trkpt lat="46.69261" lon="-0.11071">
        <ele>171.2</ele>
        <time>2019-02-05T22:01:03.979Z</time>
      </trkpt>
      <trkpt lat="46.69271" lon="-0.11106">
        <ele>172</ele>
        <time>2019-02-05T22:01:04.500Z</time>
      </trkpt>
      <trkpt lat="46.69278" lon="-0.11129">
        <ele>172</ele>
        <time>2019-02-05T22:01:04.846Z</time>
      </trkpt>
      <trkpt lat="46.69251" lon="-0.11156">
        <ele>172</ele>
        <time>2019-02-05T22:01:05.502Z</time>
      </trkpt>
      <trkpt lat="46.69231" lon="-0.11182">
        <ele>172</ele>
        <time>2019-02-05T22:01:06.039Z</time>
      </trkpt>
      <trkpt lat="46.69222" lon="-0.11205">
        <ele>172</ele>
        <time>2019-02-05T22:01:06.403Z</time>
      </trkpt>
      <trkpt lat="46.69217" lon="-0.11231">
        <ele>172</ele>
        <time>2019-02-05T22:01:06.774Z</time>
      </trkpt>
      <trkpt lat="46.69216" lon="-0.11266">
        <ele>172</ele>
        <time>2019-02-05T22:01:07.256Z</time>
      </trkpt>
      <trkpt lat="46.69224" lon="-0.11388">
        <ele>169.9</ele>
        <time>2019-02-05T22:01:08.941Z</time>
      </trkpt>
      <trkpt lat="46.69241" lon="-0.11509">
        <ele>163.7</ele>
        <time>2019-02-05T22:01:10.639Z</time>
      </trkpt>
      <trkpt lat="46.69249" lon="-0.11541">
        <ele>162.5</ele>
        <time>2019-02-05T22:01:11.107Z</time>
      </trkpt>
      <trkpt lat="46.69292" lon="-0.11636">
        <ele>159.1</ele>
        <time>2019-02-05T22:01:12.671Z</time>
      </trkpt>
      <trkpt lat="46.69305" lon="-0.11664">
        <ele>158.1</ele>
        <time>2019-02-05T22:01:13.136Z</time>
      </trkpt>
      <trkpt lat="46.69291" lon="-0.11672">
        <ele>157.5</ele>
        <time>2019-02-05T22:01:13.437Z</time>
      </trkpt>
      <trkpt lat="46.69326" lon="-0.11653">
        <ele>159.2</ele>
        <time>2019-02-05T22:01:14.185Z</time>
      </trkpt>
      <trkpt lat="46.69367" lon="-0.11638">
        <ele>160</ele>
        <time>2019-02-05T22:01:15.032Z</time>
      </trkpt>
      <trkpt lat="46.69407" lon="-0.1161">
        <ele>160</ele>
        <time>2019-02-05T22:01:15.921Z</time>
      </trkpt>
      <trkpt lat="46.69458" lon="-0.1155">
        <ele>162.5</ele>
        <time>2019-02-05T22:01:17.234Z</time>
      </trkpt>
      <trkpt lat="46.6949" lon="-0.11521">
        <ele>163.6</ele>
        <time>2019-02-05T22:01:17.989Z</time>
      </trkpt>
      <trkpt lat="46.69519" lon="-0.11502">
        <ele>165.3</ele>
        <time>2019-02-05T22:01:18.626Z</time>
      </trkpt>
      <trkpt lat="46.69533" lon="-0.11477">
        <ele>166.3</ele>
        <time>2019-02-05T22:01:19.070Z</time>
      </trkpt>
      <trkpt lat="46.6954" lon="-0.11466">
        <ele>166.9</ele>
        <time>2019-02-05T22:01:19.276Z</time>
      </trkpt>
      <trkpt lat="46.69555" lon="-0.11451">
        <ele>168</ele>
        <time>2019-02-05T22:01:19.640Z</time>
      </trkpt>
      <trkpt lat="46.69575" lon="-0.11429">
        <ele>169.4</ele>
        <time>2019-02-05T22:01:20.142Z</time>
      </trkpt>
      <trkpt lat="46.69605" lon="-0.11462">
        <ele>170.6</ele>
        <time>2019-02-05T22:01:20.895Z</time>
      </trkpt>
      <trkpt lat="46.69683" lon="-0.11542">
        <ele>171</ele>
        <time>2019-02-05T22:01:22.806Z</time>
      </trkpt>
      <trkpt lat="46.69692" lon="-0.11552">
        <ele>171</ele>
        <time>2019-02-05T22:01:23.033Z</time>
      </trkpt>
      <trkpt lat="46.69696" lon="-0.11561">
        <ele>170.8</ele>
        <time>2019-02-05T22:01:23.180Z</time>
      </trkpt>
      <trkpt lat="46.69718" lon="-0.11605">
        <ele>170</ele>
        <time>2019-02-05T22:01:23.928Z</time>
      </trkpt>
      <trkpt lat="46.69734" lon="-0.11641">
        <ele>170</ele>
        <time>2019-02-05T22:01:24.518Z</time>
      </trkpt>
      <trkpt lat="46.69756" lon="-0.11684">
        <ele>170</ele>
        <time>2019-02-05T22:01:25.255Z</time>
      </trkpt>
      <trkpt lat="46.69766" lon="-0.117">
        <ele>169.9</ele>
        <time>2019-02-05T22:01:25.553Z</time>
      </trkpt>
      <trkpt lat="46.69791" lon="-0.11731">
        <ele>169.8</ele>
        <time>2019-02-05T22:01:26.211Z</time>
      </trkpt>
      <trkpt lat="46.69816" lon="-0.11755">
        <ele>169.9</ele>
        <time>2019-02-05T22:01:26.811Z</time>
      </trkpt>
      <trkpt lat="46.69812" lon="-0.11768">
        <ele>169.5</ele>
        <time>2019-02-05T22:01:27.007Z</time>
      </trkpt>
      <trkpt lat="46.69812" lon="-0.11795">
        <ele>169.2</ele>
        <time>2019-02-05T22:01:27.378Z</time>
      </trkpt>
      <trkpt lat="46.6982" lon="-0.11837">
        <ele>168.5</ele>
        <time>2019-02-05T22:01:27.977Z</time>
      </trkpt>
      <trkpt lat="46.69818" lon="-0.11852">
        <ele>168.1</ele>
        <time>2019-02-05T22:01:28.187Z</time>
      </trkpt>
      <trkpt lat="46.69801" lon="-0.11886">
        <ele>167.9</ele>
        <time>2019-02-05T22:01:28.765Z</time>
      </trkpt>
      <trkpt lat="46.69798" lon="-0.1189">
        <ele>167.7</ele>
        <time>2019-02-05T22:01:28.846Z</time>
      </trkpt>
      <trkpt lat="46.69836" lon="-0.11922">
        <ele>166.8</ele>
        <time>2019-02-05T22:01:29.725Z</time>
      </trkpt>
      <trkpt lat="46.6987" lon="-0.11964">
        <ele>166.1</ele>
        <time>2019-02-05T22:01:30.618Z</time>
      </trkpt>
      <trkpt lat="46.69887" lon="-0.11992">
        <ele>165.3</ele>
        <time>2019-02-05T22:01:31.132Z</time>
      </trkpt>
      <trkpt lat="46.69898" lon="-0.12021">
        <ele>164.2</ele>
        <time>2019-02-05T22:01:31.587Z</time>
      </trkpt>
      <trkpt lat="46.69902" lon="-0.12056">
        <ele>162.4</ele>
        <time>2019-02-05T22:01:32.075Z</time>
      </trkpt>
      <trkpt lat="46.69902" lon="-0.12088">
        <ele>160.7</ele>
        <time>2019-02-05T22:01:32.515Z</time>
      </trkpt>
      <trkpt lat="46.69905" lon="-0.12126">
        <ele>159</ele>
        <time>2019-02-05T22:01:33.041Z</time>
      </trkpt>
      <trkpt lat="46.69916" lon="-0.12167">
        <ele>157</ele>
        <time>2019-02-05T22:01:33.646Z</time>
      </trkpt>
      <trkpt lat="46.69928" lon="-0.12195">
        <ele>156.6</ele>
        <time>2019-02-05T22:01:34.100Z</time>
      </trkpt>
      <trkpt lat="46.69937" lon="-0.12206">
        <ele>155.9</ele>
        <time>2019-02-05T22:01:34.335Z</time>
      </trkpt>
      <trkpt lat="46.69959" lon="-0.12218">
        <ele>154.6</ele>
        <time>2019-02-05T22:01:34.806Z</time>
      </trkpt>
      <trkpt lat="46.70001" lon="-0.12243">
        <ele>152.2</ele>
        <time>2019-02-05T22:01:35.715Z</time>
      </trkpt>
      <trkpt lat="46.70021" lon="-0.12258">
        <ele>151.2</ele>
        <time>2019-02-05T22:01:36.166Z</time>
      </trkpt>
      <trkpt lat="46.70035" lon="-0.12279">
        <ele>150.7</ele>
        <time>2019-02-05T22:01:36.568Z</time>
      </trkpt>
      <trkpt lat="46.70049" lon="-0.12308">
        <ele>150.3</ele>
        <time>2019-02-05T22:01:37.055Z</time>
      </trkpt>
      <trkpt lat="46.70058" lon="-0.12332">
        <ele>149.9</ele>
        <time>2019-02-05T22:01:37.431Z</time>
      </trkpt>
      <trkpt lat="46.70061" lon="-0.12354">
        <ele>149.8</ele>
        <time>2019-02-05T22:01:37.739Z</time>
      </trkpt>
      <trkpt lat="46.70055" lon="-0.12405">
        <ele>150.6</ele>
        <time>2019-02-05T22:01:38.450Z</time>
      </trkpt>
      <trkpt lat="46.70041" lon="-0.12478">
        <ele>154.1</ele>
        <time>2019-02-05T22:01:39.492Z</time>
      </trkpt>
      <trkpt lat="46.70014" lon="-0.1258">
        <ele>157</ele>
        <time>2019-02-05T22:01:40.995Z</time>
      </trkpt>
      <trkpt lat="46.70012" lon="-0.126">
        <ele>156.5</ele>
        <time>2019-02-05T22:01:41.273Z</time>
      </trkpt>
      <trkpt lat="46.70014" lon="-0.12625">
        <ele>156</ele>
        <time>2019-02-05T22:01:41.619Z</time>
      </trkpt>
      <trkpt lat="46.70032" lon="-0.12709">
        <ele>154.7</ele>
        <time>2019-02-05T22:01:42.828Z</time>
      </trkpt>
      <trkpt lat="46.70035" lon="-0.1274">
        <ele>154.5</ele>
        <time>2019-02-05T22:01:43.258Z</time>
      </trkpt>
      <trkpt lat="46.70034" lon="-0.12746">
        <ele>154.6</ele>
        <time>2019-02-05T22:01:43.343Z</time>
      </trkpt>
      <trkpt lat="46.70024" lon="-0.12756">
        <ele>155.2</ele>
        <time>2019-02-05T22:01:43.586Z</time>
      </trkpt>
      <trkpt lat="46.70032" lon="-0.12761">
        <ele>154.7</ele>
        <time>2019-02-05T22:01:43.760Z</time>
      </trkpt>
      <trkpt lat="46.70045" lon="-0.12782">
        <ele>153.8</ele>
        <time>2019-02-05T22:01:44.149Z</time>
      </trkpt>
      <trkpt lat="46.70074" lon="-0.12826">
        <ele>152.6</ele>
        <time>2019-02-05T22:01:44.988Z</time>
      </trkpt>
      <trkpt lat="46.70096" lon="-0.12852">
        <ele>152.4</ele>
        <time>2019-02-05T22:01:45.555Z</time>
      </trkpt>
      <trkpt lat="46.70106" lon="-0.12868">
        <ele>152.4</ele>
        <time>2019-02-05T22:01:45.853Z</time>
      </trkpt>
      <trkpt lat="46.70108" lon="-0.12882">
        <ele>152.8</ele>
        <time>2019-02-05T22:01:46.050Z</time>
      </trkpt>
      <trkpt lat="46.70102" lon="-0.12954">
        <ele>153.9</ele>
        <time>2019-02-05T22:01:47.047Z</time>
      </trkpt>
      <trkpt lat="46.70102" lon="-0.12965">
        <ele>154.2</ele>
        <time>2019-02-05T22:01:47.198Z</time>
      </trkpt>
      <trkpt lat="46.70105" lon="-0.12973">
        <ele>154.2</ele>
        <time>2019-02-05T22:01:47.323Z</time>
      </trkpt>
      <trkpt lat="46.7011" lon="-0.12979">
        <ele>154.3</ele>
        <time>2019-02-05T22:01:47.453Z</time>
      </trkpt>
      <trkpt lat="46.70115" lon="-0.1298">
        <ele>154.1</ele>
        <time>2019-02-05T22:01:47.554Z</time>
      </trkpt>
      <trkpt lat="46.70178" lon="-0.1303">
        <ele>152.7</ele>
        <time>2019-02-05T22:01:48.991Z</time>
      </trkpt>
      <trkpt lat="46.70202" lon="-0.13051">
        <ele>152.3</ele>
        <time>2019-02-05T22:01:49.552Z</time>
      </trkpt>
      <trkpt lat="46.70228" lon="-0.13084">
        <ele>151.8</ele>
        <time>2019-02-05T22:01:50.243Z</time>
      </trkpt>
      <trkpt lat="46.70269" lon="-0.13143">
        <ele>150.6</ele>
        <time>2019-02-05T22:01:51.397Z</time>
      </trkpt>
      <trkpt lat="46.70288" lon="-0.13162">
        <ele>149.3</ele>
        <time>2019-02-05T22:01:51.859Z</time>
      </trkpt>
      <trkpt lat="46.70316" lon="-0.13175">
        <ele>148</ele>
        <time>2019-02-05T22:01:52.448Z</time>
      </trkpt>
      <trkpt lat="46.70373" lon="-0.13213">
        <ele>145.1</ele>
        <time>2019-02-05T22:01:53.704Z</time>
      </trkpt>
      <trkpt lat="46.70397" lon="-0.13231">
        <ele>143.6</ele>
        <time>2019-02-05T22:01:54.245Z</time>
      </trkpt>
      <trkpt lat="46.70413" lon="-0.13244">
        <ele>142.5</ele>
        <time>2019-02-05T22:01:54.612Z</time>
      </trkpt>
      <trkpt lat="46.70423" lon="-0.13258">
        <ele>141.7</ele>
        <time>2019-02-05T22:01:54.890Z</time>
      </trkpt>
      <trkpt lat="46.70444" lon="-0.1329">
        <ele>139.6</ele>
        <time>2019-02-05T22:01:55.499Z</time>
      </trkpt>
      <trkpt lat="46.70454" lon="-0.133">
        <ele>138.8</ele>
        <time>2019-02-05T22:01:55.742Z</time>
      </trkpt>
      <trkpt lat="46.70469" lon="-0.13304">
        <ele>138.1</ele>
        <time>2019-02-05T22:01:56.048Z</time>
      </trkpt>
      <trkpt lat="46.70496" lon="-0.1331">
        <ele>138.1</ele>
        <time>2019-02-05T22:01:56.595Z</time>
      </trkpt>
      <trkpt lat="46.70519" lon="-0.1332">
        <ele>139.2</ele>
        <time>2019-02-05T22:01:57.076Z</time>
      </trkpt>
      <trkpt lat="46.70527" lon="-0.13325">
        <ele>139.7</ele>
        <time>2019-02-05T22:01:57.250Z</time>
      </trkpt>
      <trkpt lat="46.70541" lon="-0.13338">
        <ele>141.2</ele>
        <time>2019-02-05T22:01:57.583Z</time>
      </trkpt>
      <trkpt lat="46.70555" lon="-0.13346">
        <ele>142.4</ele>
        <time>2019-02-05T22:01:57.884Z</time>
      </trkpt>
      <trkpt lat="46.70558" lon="-0.13347">
        <ele>142.6</ele>
        <time>2019-02-05T22:01:57.946Z</time>
      </trkpt>
      <trkpt lat="46.70559" lon="-0.13352">
        <ele>142.8</ele>
        <time>2019-02-05T22:01:58.018Z</time>
      </trkpt>
      <trkpt lat="46.70566" lon="-0.13364">
        <ele>143.4</ele>
        <time>2019-02-05T22:01:58.234Z</time>
      </trkpt>
      <trkpt lat="46.70607" lon="-0.13448">
        <ele>144</ele>
        <time>2019-02-05T22:01:59.651Z</time>
      </trkpt>
      <trkpt lat="46.70635" lon="-0.13495">
        <ele>143.9</ele>
        <time>2019-02-05T22:02:00.507Z</time>
      </trkpt>
      <trkpt lat="46.70665" lon="-0.13533">
        <ele>142.8</ele>
        <time>2019-02-05T22:02:01.303Z</time>
      </trkpt>
      <trkpt lat="46.70702" lon="-0.13562">
        <ele>141.8</ele>
        <time>2019-02-05T22:02:02.145Z</time>
      </trkpt>
      <trkpt lat="46.70748" lon="-0.1359">
        <ele>141.1</ele>
        <time>2019-02-05T22:02:03.144Z</time>
      </trkpt>
      <trkpt lat="46.70801" lon="-0.13613">
        <ele>140</ele>
        <time>2019-02-05T22:02:04.252Z</time>
      </trkpt>
      <trkpt lat="46.70838" lon="-0.13624">
        <ele>138.9</ele>
        <time>2019-02-05T22:02:05.009Z</time>
      </trkpt>
      <trkpt lat="46.70885" lon="-0.13633">
        <ele>137.4</ele>
        <time>2019-02-05T22:02:05.959Z</time>
      </trkpt>
      <trkpt lat="46.70912" lon="-0.13638">
        <ele>136.2</ele>
        <time>2019-02-05T22:02:06.504Z</time>
      </trkpt>
      <trkpt lat="46.70919" lon="-0.13637">
        <ele>136</ele>
        <time>2019-02-05T22:02:06.645Z</time>
      </trkpt>
      <trkpt lat="46.70927" lon="-0.13668">
        <ele>135.6</ele>
        <time>2019-02-05T22:02:07.100Z</time>
      </trkpt>
      <trkpt lat="46.70954" lon="-0.13761">
        <ele>134.7</ele>
        <time>2019-02-05T22:02:08.488Z</time>
      </trkpt>
      <trkpt lat="46.70965" lon="-0.13788">
        <ele>134.2</ele>
        <time>2019-02-05T22:02:08.920Z</time>
      </trkpt>
      <trkpt lat="46.70978" lon="-0.13812">
        <ele>133.8</ele>
        <time>2019-02-05T22:02:09.340Z</time>
      </trkpt>
      <trkpt lat="46.71019" lon="-0.1388">
        <ele>133.1</ele>
        <time>2019-02-05T22:02:10.584Z</time>
      </trkpt>
      <trkpt lat="46.71044" lon="-0.13917">
        <ele>132.6</ele>
        <time>2019-02-05T22:02:11.298Z</time>
      </trkpt>
      <trkpt lat="46.71046" lon="-0.13929">
        <ele>132.7</ele>
        <time>2019-02-05T22:02:11.468Z</time>
      </trkpt>
      <trkpt lat="46.71048" lon="-0.13936">
        <ele>132.7</ele>
        <time>2019-02-05T22:02:11.572Z</time>
      </trkpt>
      <trkpt lat="46.71086" lon="-0.14018">
        <ele>132.9</ele>
        <time>2019-02-05T22:02:12.932Z</time>
      </trkpt>
      <trkpt lat="46.71112" lon="-0.14087">
        <ele>131</ele>
        <time>2019-02-05T22:02:14.014Z</time>
      </trkpt>
      <trkpt lat="46.71129" lon="-0.14155">
        <ele>128.8</ele>
        <time>2019-02-05T22:02:15.009Z</time>
      </trkpt>
      <trkpt lat="46.71141" lon="-0.14207">
        <ele>127.5</ele>
        <time>2019-02-05T22:02:15.763Z</time>
      </trkpt>
      <trkpt lat="46.71146" lon="-0.1422">
        <ele>126.8</ele>
        <time>2019-02-05T22:02:15.968Z</time>
      </trkpt>
      <trkpt lat="46.71177" lon="-0.14252">
        <ele>124.6</ele>
        <time>2019-02-05T22:02:16.729Z</time>
      </trkpt>
      <trkpt lat="46.71197" lon="-0.1428">
        <ele>122.8</ele>
        <time>2019-02-05T22:02:17.285Z</time>
      </trkpt>
      <trkpt lat="46.71221" lon="-0.14319">
        <ele>120.1</ele>
        <time>2019-02-05T22:02:18.005Z</time>
      </trkpt>
      <trkpt lat="46.71236" lon="-0.14353">
        <ele>118.8</ele>
        <time>2019-02-05T22:02:18.561Z</time>
      </trkpt>
      <trkpt lat="46.71256" lon="-0.14377">
        <ele>116.4</ele>
        <time>2019-02-05T22:02:19.080Z</time>
      </trkpt>
      <trkpt lat="46.71267" lon="-0.1439">
        <ele>114.7</ele>
        <time>2019-02-05T22:02:19.364Z</time>
      </trkpt>
      <trkpt lat="46.71275" lon="-0.14393">
        <ele>113.9</ele>
        <time>2019-02-05T22:02:19.530Z</time>
      </trkpt>
      <trkpt lat="46.71296" lon="-0.14392">
        <ele>113.8</ele>
        <time>2019-02-05T22:02:19.951Z</time>
      </trkpt>
      <trkpt lat="46.71304" lon="-0.14394">
        <ele>113.6</ele>
        <time>2019-02-05T22:02:20.114Z</time>
      </trkpt>
      <trkpt lat="46.71311" lon="-0.14403">
        <ele>113.1</ele>
        <time>2019-02-05T22:02:20.301Z</time>
      </trkpt>
      <trkpt lat="46.71333" lon="-0.14441">
        <ele>112.1</ele>
        <time>2019-02-05T22:02:20.984Z</time>
      </trkpt>
      <trkpt lat="46.71349" lon="-0.14461">
        <ele>112</ele>
        <time>2019-02-05T22:02:21.406Z</time>
      </trkpt>
      <trkpt lat="46.71361" lon="-0.14468">
        <ele>112.1</ele>
        <time>2019-02-05T22:02:21.665Z</time>
      </trkpt>
      <trkpt lat="46.71377" lon="-0.14472">
        <ele>111.4</ele>
        <time>2019-02-05T22:02:21.990Z</time>
      </trkpt>
      <trkpt lat="46.71398" lon="-0.14473">
        <ele>110.9</ele>
        <time>2019-02-05T22:02:22.411Z</time>
      </trkpt>
      <trkpt lat="46.71388" lon="-0.14486">
        <ele>110</ele>
        <time>2019-02-05T22:02:22.679Z</time>
      </trkpt>
      <trkpt lat="46.71375" lon="-0.14506">
        <ele>108</ele>
        <time>2019-02-05T22:02:23.058Z</time>
      </trkpt>
      <trkpt lat="46.71364" lon="-0.14518">
        <ele>106.3</ele>
        <time>2019-02-05T22:02:23.333Z</time>
      </trkpt>
      <trkpt lat="46.7135" lon="-0.14527">
        <ele>104.7</ele>
        <time>2019-02-05T22:02:23.640Z</time>
      </trkpt>
      <trkpt lat="46.71332" lon="-0.14538">
        <ele>103.2</ele>
        <time>2019-02-05T22:02:24.031Z</time>
      </trkpt>
      <trkpt lat="46.71305" lon="-0.14563">
        <ele>100.7</ele>
        <time>2019-02-05T22:02:24.672Z</time>
      </trkpt>
      <trkpt lat="46.71298" lon="-0.14571">
        <ele>100.4</ele>
        <time>2019-02-05T22:02:24.850Z</time>
      </trkpt>
      <trkpt lat="46.71286" lon="-0.1457">
        <ele>100.5</ele>
        <time>2019-02-05T22:02:25.091Z</time>
      </trkpt>
      <trkpt lat="46.71298" lon="-0.14571">
        <ele>100.4</ele>
        <time>2019-02-05T22:02:25.332Z</time>
      </trkpt>
      <trkpt lat="46.71291" lon="-0.14587">
        <ele>99.9</ele>
        <time>2019-02-05T22:02:25.593Z</time>
      </trkpt>
      <trkpt lat="46.71285" lon="-0.14626">
        <ele>98.6</ele>
        <time>2019-02-05T22:02:26.142Z</time>
      </trkpt>
      <trkpt lat="46.71285" lon="-0.14666">
        <ele>98</ele>
        <time>2019-02-05T22:02:26.692Z</time>
      </trkpt>
      <trkpt lat="46.71283" lon="-0.14673">
        <ele>97.8</ele>
        <time>2019-02-05T22:02:26.796Z</time>
      </trkpt>
      <trkpt lat="46.71256" lon="-0.14721">
        <ele>97.4</ele>
        <time>2019-02-05T22:02:27.649Z</time>
      </trkpt>
      <trkpt lat="46.71252" lon="-0.14731">
        <ele>98.5</ele>
        <time>2019-02-05T22:02:27.808Z</time>
      </trkpt>
      <trkpt lat="46.71244" lon="-0.14741">
        <ele>99.5</ele>
        <time>2019-02-05T22:02:28.019Z</time>
      </trkpt>
      <trkpt lat="46.71225" lon="-0.14749">
        <ele>99.2</ele>
        <time>2019-02-05T22:02:28.415Z</time>
      </trkpt>
      <trkpt lat="46.71207" lon="-0.14757">
        <ele>101.3</ele>
        <time>2019-02-05T22:02:28.792Z</time>
      </trkpt>
      <trkpt lat="46.71196" lon="-0.14775">
        <ele>102</ele>
        <time>2019-02-05T22:02:29.123Z</time>
      </trkpt>
      <trkpt lat="46.71177" lon="-0.14837">
        <ele>105.5</ele>
        <time>2019-02-05T22:02:30.056Z</time>
      </trkpt>
      <trkpt lat="46.71173" lon="-0.14848">
        <ele>105.2</ele>
        <time>2019-02-05T22:02:30.227Z</time>
      </trkpt>
      <trkpt lat="46.71144" lon="-0.14876">
        <ele>108.9</ele>
        <time>2019-02-05T22:02:30.924Z</time>
      </trkpt>
      <trkpt lat="46.71098" lon="-0.14906">
        <ele>114.2</ele>
        <time>2019-02-05T22:02:31.934Z</time>
      </trkpt>
      <trkpt lat="46.71088" lon="-0.14915">
        <ele>114.9</ele>
        <time>2019-02-05T22:02:32.169Z</time>
      </trkpt>
      <trkpt lat="46.71081" lon="-0.14917">
        <ele>115</ele>
        <time>2019-02-05T22:02:32.312Z</time>
      </trkpt>
      <trkpt lat="46.7107" lon="-0.14921">
        <ele>115.4</ele>
        <time>2019-02-05T22:02:32.539Z</time>
      </trkpt>
      <trkpt lat="46.7106" lon="-0.14935">
        <ele>116.4</ele>
        <time>2019-02-05T22:02:32.817Z</time>
      </trkpt>
      <trkpt lat="46.71039" lon="-0.14977">
        <ele>118.6</ele>
        <time>2019-02-05T22:02:33.531Z</time>
      </trkpt>
      <trkpt lat="46.71031" lon="-0.14995">
        <ele>119.6</ele>
        <time>2019-02-05T22:02:33.826Z</time>
      </trkpt>
      <trkpt lat="46.71027" lon="-0.15011">
        <ele>120</ele>
        <time>2019-02-05T22:02:34.060Z</time>
      </trkpt>
      <trkpt lat="46.71023" lon="-0.15025">
        <ele>120</ele>
        <time>2019-02-05T22:02:34.268Z</time>
      </trkpt>
      <trkpt lat="46.71015" lon="-0.15036">
        <ele>119.5</ele>
        <time>2019-02-05T22:02:34.488Z</time>
      </trkpt>
      <trkpt lat="46.70941" lon="-0.15099">
        <ele>120.1</ele>
        <time>2019-02-05T22:02:36.205Z</time>
      </trkpt>
      <trkpt lat="46.70838" lon="-0.15189">
        <ele>125.5</ele>
        <time>2019-02-05T22:02:38.611Z</time>
      </trkpt>
      <trkpt lat="46.7076" lon="-0.15261">
        <ele>129.6</ele>
        <time>2019-02-05T22:02:40.461Z</time>
      </trkpt>
      <trkpt lat="46.70723" lon="-0.15291">
        <ele>131</ele>
        <time>2019-02-05T22:02:41.309Z</time>
      </trkpt>
      <trkpt lat="46.70705" lon="-0.15308">
        <ele>131.6</ele>
        <time>2019-02-05T22:02:41.739Z</time>
      </trkpt>
      <trkpt lat="46.7069" lon="-0.15333">
        <ele>132</ele>
        <time>2019-02-05T22:02:42.195Z</time>
      </trkpt>
      <trkpt lat="46.70637" lon="-0.15418">
        <ele>134.1</ele>
        <time>2019-02-05T22:02:43.774Z</time>
      </trkpt>
      <trkpt lat="46.70618" lon="-0.15438">
        <ele>134.8</ele>
        <time>2019-02-05T22:02:44.244Z</time>
      </trkpt>
      <trkpt lat="46.70604" lon="-0.1546">
        <ele>135.5</ele>
        <time>2019-02-05T22:02:44.656Z</time>
      </trkpt>
      <trkpt lat="46.70584" lon="-0.15491">
        <ele>137</ele>
        <time>2019-02-05T22:02:45.241Z</time>
      </trkpt>
      <trkpt lat="46.70583" lon="-0.15502">
        <ele>137</ele>
        <time>2019-02-05T22:02:45.393Z</time>
      </trkpt>
      <trkpt lat="46.70582" lon="-0.15506">
        <ele>137</ele>
        <time>2019-02-05T22:02:45.452Z</time>
      </trkpt>
      <trkpt lat="46.70602" lon="-0.15522">
        <ele>136.2</ele>
        <time>2019-02-05T22:02:45.909Z</time>
      </trkpt>
      <trkpt lat="46.70654" lon="-0.15569">
        <ele>135.7</ele>
        <time>2019-02-05T22:02:47.135Z</time>
      </trkpt>
      <trkpt lat="46.70673" lon="-0.15581">
        <ele>135.9</ele>
        <time>2019-02-05T22:02:47.550Z</time>
      </trkpt>
      <trkpt lat="46.70751" lon="-0.15623">
        <ele>135.4</ele>
        <time>2019-02-05T22:02:49.216Z</time>
      </trkpt>
      <trkpt lat="46.70821" lon="-0.15666">
        <ele>135.4</ele>
        <time>2019-02-05T22:02:50.738Z</time>
      </trkpt>
      <trkpt lat="46.70862" lon="-0.15698">
        <ele>136.1</ele>
        <time>2019-02-05T22:02:51.670Z</time>
      </trkpt>
      <trkpt lat="46.70877" lon="-0.15714">
        <ele>136.7</ele>
        <time>2019-02-05T22:02:52.042Z</time>
      </trkpt>
      <trkpt lat="46.70895" lon="-0.15736">
        <ele>137.5</ele>
        <time>2019-02-05T22:02:52.513Z</time>
      </trkpt>
      <trkpt lat="46.70927" lon="-0.15768">
        <ele>139.1</ele>
        <time>2019-02-05T22:02:53.291Z</time>
      </trkpt>
      <trkpt lat="46.70977" lon="-0.15813">
        <ele>140.3</ele>
        <time>2019-02-05T22:02:54.468Z</time>
      </trkpt>
      <trkpt lat="46.70995" lon="-0.15825">
        <ele>140.7</ele>
        <time>2019-02-05T22:02:54.865Z</time>
      </trkpt>
      <trkpt lat="46.71019" lon="-0.15838">
        <ele>141.1</ele>
        <time>2019-02-05T22:02:55.378Z</time>
      </trkpt>
      <trkpt lat="46.71068" lon="-0.15846">
        <ele>140.8</ele>
        <time>2019-02-05T22:02:56.366Z</time>
      </trkpt>
      <trkpt lat="46.71184" lon="-0.15866">
        <ele>138.5</ele>
        <time>2019-02-05T22:02:58.707Z</time>
      </trkpt>
      <trkpt lat="46.71229" lon="-0.15868">
        <ele>137.8</ele>
        <time>2019-02-05T22:02:59.609Z</time>
      </trkpt>
      <trkpt lat="46.7133" lon="-0.15864">
        <ele>137.1</ele>
        <time>2019-02-05T22:03:01.634Z</time>
      </trkpt>
      <trkpt lat="46.71388" lon="-0.15863">
        <ele>137</ele>
        <time>2019-02-05T22:03:02.796Z</time>
      </trkpt>
      <trkpt lat="46.71414" lon="-0.15867">
        <ele>137</ele>
        <time>2019-02-05T22:03:03.320Z</time>
      </trkpt>
      <trkpt lat="46.71463" lon="-0.15882">
        <ele>137</ele>
        <time>2019-02-05T22:03:04.323Z</time>
      </trkpt>
      <trkpt lat="46.71491" lon="-0.15893">
        <ele>137</ele>
        <time>2019-02-05T22:03:04.904Z</time>
      </trkpt>
      <trkpt lat="46.71516" lon="-0.15906">
        <ele>136.6</ele>
        <time>2019-02-05T22:03:05.436Z</time>
      </trkpt>
      <trkpt lat="46.71514" lon="-0.15931">
        <ele>136.5</ele>
        <time>2019-02-05T22:03:05.782Z</time>
      </trkpt>
      <trkpt lat="46.7152" lon="-0.16067">
        <ele>135.7</ele>
        <time>2019-02-05T22:03:07.654Z</time>
      </trkpt>
      <trkpt lat="46.71527" lon="-0.16104">
        <ele>135</ele>
        <time>2019-02-05T22:03:08.181Z</time>
      </trkpt>
      <trkpt lat="46.7154" lon="-0.16142">
        <ele>135</ele>
        <time>2019-02-05T22:03:08.764Z</time>
      </trkpt>
      <trkpt lat="46.71547" lon="-0.16167">
        <ele>135</ele>
        <time>2019-02-05T22:03:09.135Z</time>
      </trkpt>
      <trkpt lat="46.71549" lon="-0.16195">
        <ele>134.7</ele>
        <time>2019-02-05T22:03:09.522Z</time>
      </trkpt>
      <trkpt lat="46.7153" lon="-0.164">
        <ele>133</ele>
        <time>2019-02-05T22:03:12.364Z</time>
      </trkpt>
      <trkpt lat="46.71525" lon="-0.16419">
        <ele>133</ele>
        <time>2019-02-05T22:03:12.644Z</time>
      </trkpt>
      <trkpt lat="46.7151" lon="-0.1644">
        <ele>133</ele>
        <time>2019-02-05T22:03:13.061Z</time>
      </trkpt>
      <trkpt lat="46.71467" lon="-0.165">
        <ele>132.8</ele>
        <time>2019-02-05T22:03:14.254Z</time>
      </trkpt>
      <trkpt lat="46.7144" lon="-0.16532">
        <ele>132.1</ele>
        <time>2019-02-05T22:03:14.951Z</time>
      </trkpt>
      <trkpt lat="46.71392" lon="-0.16573">
        <ele>131.3</ele>
        <time>2019-02-05T22:03:16.066Z</time>
      </trkpt>
      <trkpt lat="46.71342" lon="-0.16625">
        <ele>132.3</ele>
        <time>2019-02-05T22:03:17.297Z</time>
      </trkpt>
      <trkpt lat="46.71308" lon="-0.16666">
        <ele>132.9</ele>
        <time>2019-02-05T22:03:18.181Z</time>
      </trkpt>
      <trkpt lat="46.71215" lon="-0.16804">
        <ele>134.3</ele>
        <time>2019-02-05T22:03:20.840Z</time>
      </trkpt>
      <trkpt lat="46.71163" lon="-0.16887">
        <ele>133.1</ele>
        <time>2019-02-05T22:03:22.385Z</time>
      </trkpt>
      <trkpt lat="46.71132" lon="-0.16943">
        <ele>131</ele>
        <time>2019-02-05T22:03:23.374Z</time>
      </trkpt>
      <trkpt lat="46.71112" lon="-0.16988">
        <ele>131</ele>
        <time>2019-02-05T22:03:24.111Z</time>
      </trkpt>
      <trkpt lat="46.71097" lon="-0.17016">
        <ele>131.2</ele>
        <time>2019-02-05T22:03:24.599Z</time>
      </trkpt>
      <trkpt lat="46.71065" lon="-0.17067">
        <ele>132.2</ele>
        <time>2019-02-05T22:03:25.549Z</time>
      </trkpt>
      <trkpt lat="46.71034" lon="-0.17121">
        <ele>132.7</ele>
        <time>2019-02-05T22:03:26.517Z</time>
      </trkpt>
      <trkpt lat="46.71023" lon="-0.17145">
        <ele>133</ele>
        <time>2019-02-05T22:03:26.914Z</time>
      </trkpt>
      <trkpt lat="46.70993" lon="-0.17217">
        <ele>132.6</ele>
        <time>2019-02-05T22:03:28.072Z</time>
      </trkpt>
      <trkpt lat="46.71015" lon="-0.17214">
        <ele>132.1</ele>
        <time>2019-02-05T22:03:28.515Z</time>
      </trkpt>
      <trkpt lat="46.71029" lon="-0.17208">
        <ele>132</ele>
        <time>2019-02-05T22:03:28.807Z</time>
      </trkpt>
      <trkpt lat="46.71056" lon="-0.17202">
        <ele>132</ele>
        <time>2019-02-05T22:03:29.354Z</time>
      </trkpt>
      <trkpt lat="46.71095" lon="-0.17205">
        <ele>132.6</ele>
        <time>2019-02-05T22:03:30.137Z</time>
      </trkpt>
      <trkpt lat="46.7119" lon="-0.17214">
        <ele>134.6</ele>
        <time>2019-02-05T22:03:32.045Z</time>
      </trkpt>
      <trkpt lat="46.71281" lon="-0.1722">
        <ele>134.9</ele>
        <time>2019-02-05T22:03:33.870Z</time>
      </trkpt>
      <trkpt lat="46.71397" lon="-0.17213">
        <ele>134.6</ele>
        <time>2019-02-05T22:03:36.197Z</time>
      </trkpt>
      <trkpt lat="46.71438" lon="-0.17206">
        <ele>133.8</ele>
        <time>2019-02-05T22:03:37.024Z</time>
      </trkpt>
      <trkpt lat="46.71471" lon="-0.17194">
        <ele>133.9</ele>
        <time>2019-02-05T22:03:37.706Z</time>
      </trkpt>
      <trkpt lat="46.71496" lon="-0.17182">
        <ele>133.6</ele>
        <time>2019-02-05T22:03:38.233Z</time>
      </trkpt>
      <trkpt lat="46.71529" lon="-0.17161">
        <ele>133.8</ele>
        <time>2019-02-05T22:03:38.954Z</time>
      </trkpt>
      <trkpt lat="46.71582" lon="-0.17129">
        <ele>133.6</ele>
        <time>2019-02-05T22:03:40.103Z</time>
      </trkpt>
      <trkpt lat="46.71595" lon="-0.1712">
        <ele>133.3</ele>
        <time>2019-02-05T22:03:40.391Z</time>
      </trkpt>
      <trkpt lat="46.71618" lon="-0.17095">
        <ele>133.1</ele>
        <time>2019-02-05T22:03:40.966Z</time>
      </trkpt>
      <trkpt lat="46.71647" lon="-0.17069">
        <ele>132.7</ele>
        <time>2019-02-05T22:03:41.648Z</time>
      </trkpt>
      <trkpt lat="46.71683" lon="-0.1704">
        <ele>130.3</ele>
        <time>2019-02-05T22:03:42.472Z</time>
      </trkpt>
      <trkpt lat="46.71709" lon="-0.1702">
        <ele>128</ele>
        <time>2019-02-05T22:03:43.061Z</time>
      </trkpt>
      <trkpt lat="46.71729" lon="-0.1701">
        <ele>126.5</ele>
        <time>2019-02-05T22:03:43.485Z</time>
      </trkpt>
      <trkpt lat="46.71738" lon="-0.17006">
        <ele>125.9</ele>
        <time>2019-02-05T22:03:43.674Z</time>
      </trkpt>
      <trkpt lat="46.71763" lon="-0.17">
        <ele>124.5</ele>
        <time>2019-02-05T22:03:44.182Z</time>
      </trkpt>
      <trkpt lat="46.71815" lon="-0.17002">
        <ele>124.1</ele>
        <time>2019-02-05T22:03:45.224Z</time>
      </trkpt>
      <trkpt lat="46.71938" lon="-0.16989">
        <ele>123.4</ele>
        <time>2019-02-05T22:03:47.695Z</time>
      </trkpt>
      <trkpt lat="46.71956" lon="-0.16989">
        <ele>123.7</ele>
        <time>2019-02-05T22:03:48.056Z</time>
      </trkpt>
      <trkpt lat="46.71976" lon="-0.16999">
        <ele>124.9</ele>
        <time>2019-02-05T22:03:48.480Z</time>
      </trkpt>
      <trkpt lat="46.71989" lon="-0.17009">
        <ele>125.5</ele>
        <time>2019-02-05T22:03:48.775Z</time>
      </trkpt>
      <trkpt lat="46.72019" lon="-0.17045">
        <ele>125.3</ele>
        <time>2019-02-05T22:03:49.553Z</time>
      </trkpt>
      <trkpt lat="46.72031" lon="-0.17052">
        <ele>125</ele>
        <time>2019-02-05T22:03:49.812Z</time>
      </trkpt>
      <trkpt lat="46.72038" lon="-0.17051">
        <ele>125.1</ele>
        <time>2019-02-05T22:03:49.953Z</time>
      </trkpt>
      <trkpt lat="46.7214" lon="-0.16975">
        <ele>126</ele>
        <time>2019-02-05T22:03:52.248Z</time>
      </trkpt>
      <trkpt lat="46.72167" lon="-0.16954">
        <ele>125</ele>
        <time>2019-02-05T22:03:52.861Z</time>
      </trkpt>
      <trkpt lat="46.72192" lon="-0.16927">
        <ele>123.5</ele>
        <time>2019-02-05T22:03:53.484Z</time>
      </trkpt>
      <trkpt lat="46.72217" lon="-0.16905">
        <ele>121.4</ele>
        <time>2019-02-05T22:03:54.069Z</time>
      </trkpt>
      <trkpt lat="46.72304" lon="-0.16826">
        <ele>118.1</ele>
        <time>2019-02-05T22:03:56.123Z</time>
      </trkpt>
      <trkpt lat="46.72354" lon="-0.16775">
        <ele>117</ele>
        <time>2019-02-05T22:03:57.346Z</time>
      </trkpt>
      <trkpt lat="46.7243" lon="-0.16703">
        <ele>115.5</ele>
        <time>2019-02-05T22:03:59.162Z</time>
      </trkpt>
      <trkpt lat="46.72457" lon="-0.16666">
        <ele>115</ele>
        <time>2019-02-05T22:03:59.904Z</time>
      </trkpt>
      <trkpt lat="46.72464" lon="-0.16654">
        <ele>115.3</ele>
        <time>2019-02-05T22:04:00.120Z</time>
      </trkpt>
      <trkpt lat="46.72467" lon="-0.16644">
        <ele>115.7</ele>
        <time>2019-02-05T22:04:00.270Z</time>
      </trkpt>
      <trkpt lat="46.7247" lon="-0.16646">
        <ele>115.7</ele>
        <time>2019-02-05T22:04:00.336Z</time>
      </trkpt>
      <trkpt lat="46.72479" lon="-0.16652">
        <ele>116.4</ele>
        <time>2019-02-05T22:04:00.534Z</time>
      </trkpt>
      <trkpt lat="46.72501" lon="-0.16664">
        <ele>118.2</ele>
        <time>2019-02-05T22:04:01.005Z</time>
      </trkpt>
      <trkpt lat="46.72539" lon="-0.16673">
        <ele>119.2</ele>
        <time>2019-02-05T22:04:01.776Z</time>
      </trkpt>
      <trkpt lat="46.72562" lon="-0.16683">
        <ele>119.5</ele>
        <time>2019-02-05T22:04:02.257Z</time>
      </trkpt>
      <trkpt lat="46.72576" lon="-0.1669">
        <ele>119.8</ele>
        <time>2019-02-05T22:04:02.554Z</time>
      </trkpt>
      <trkpt lat="46.72602" lon="-0.16705">
        <ele>120.5</ele>
        <time>2019-02-05T22:04:03.114Z</time>
      </trkpt>
      <trkpt lat="46.72625" lon="-0.16714">
        <ele>121.1</ele>
        <time>2019-02-05T22:04:03.591Z</time>
      </trkpt>
      <trkpt lat="46.7266" lon="-0.1672">
        <ele>121.8</ele>
        <time>2019-02-05T22:04:04.297Z</time>
      </trkpt>
      <trkpt lat="46.72669" lon="-0.1672">
        <ele>122.2</ele>
        <time>2019-02-05T22:04:04.477Z</time>
      </trkpt>
      <trkpt lat="46.72704" lon="-0.16735">
        <ele>125</ele>
        <time>2019-02-05T22:04:05.208Z</time>
      </trkpt>
      <trkpt lat="46.72722" lon="-0.16746">
        <ele>127</ele>
        <time>2019-02-05T22:04:05.599Z</time>
      </trkpt>
      <trkpt lat="46.72734" lon="-0.16755">
        <ele>128.3</ele>
        <time>2019-02-05T22:04:05.869Z</time>
      </trkpt>
      <trkpt lat="46.72756" lon="-0.1672">
        <ele>130.7</ele>
        <time>2019-02-05T22:04:06.521Z</time>
      </trkpt>
      <trkpt lat="46.72766" lon="-0.16713">
        <ele>131.6</ele>
        <time>2019-02-05T22:04:06.743Z</time>
      </trkpt>
      <trkpt lat="46.72786" lon="-0.167">
        <ele>131.9</ele>
        <time>2019-02-05T22:04:07.182Z</time>
      </trkpt>
      <trkpt lat="46.72816" lon="-0.16686">
        <ele>132</ele>
        <time>2019-02-05T22:04:07.813Z</time>
      </trkpt>
      <trkpt lat="46.72813" lon="-0.16666">
        <ele>131</ele>
        <time>2019-02-05T22:04:08.094Z</time>
      </trkpt>
      <trkpt lat="46.7281" lon="-0.16644">
        <ele>129.4</ele>
        <time>2019-02-05T22:04:08.402Z</time>
      </trkpt>
      <trkpt lat="46.72805" lon="-0.16601">
        <ele>126.6</ele>
        <time>2019-02-05T22:04:09.001Z</time>
      </trkpt>
      <trkpt lat="46.72804" lon="-0.1654">
        <ele>124.4</ele>
        <time>2019-02-05T22:04:09.839Z</time>
      </trkpt>
      <trkpt lat="46.72805" lon="-0.16532">
        <ele>124.2</ele>
        <time>2019-02-05T22:04:09.951Z</time>
      </trkpt>
      <trkpt lat="46.72843" lon="-0.16525">
        <ele>123.6</ele>
        <time>2019-02-05T22:04:10.719Z</time>
      </trkpt>
    </trkseg>
  </trk>
</gpx>